<?xml version="1.0" encoding="UTF-8" standalone="no"?>
<gpx version="1.1" creator="arnoldrimtrail.org" xmlns="http://www.topografix.com/GPX/1/1" xmlns:xsi="http://www.w3.org/2001/XMLSchema-instance" xmlns:gpxtpx="http://www.garmin.com/xmlschemas/TrackPointExtension/v1" xsi:schemaLocation="http://www.topografix.com/GPX/1/1 http://www.topografix.com/GPX/1/1/gpx.xsd http://www.garmin.com/xmlschemas/TrackPointExtension/v1 http://www.garmin.com/xmlschemas/TrackPointExtensionv1.xsd">
<metadata>
<name>Run the Rim Half Marathon (21K) ARTA Route</name>
<link href="https://www.arnoldrimtrail.org/">
<text>ARTA</text>
</link>
</metadata>
<wpt lat="38.232324" lon="-120.389166">
<name>Cougar Rock Aid Station</name>
</wpt>
<wpt lat="38.258116" lon="-120.368841">
<name>Equine Aid Station (1)</name>
</wpt>
<wpt lat="38.26642" lon="-120.342898">
<name>START/FINISH</name>
</wpt>
<wpt lat="38.269142" lon="-120.346649">
<name>5N56 Aid Station</name>
</wpt>
<wpt lat="38.258375" lon="-120.368745">
<name>Equine Aid Station (2)</name>
</wpt>
<trk>
<name>
Run the Rim Half Marathon (21K)
</name>
<link href="https://www.arnoldrimtrail.org/runtherim/">
</link>
<trkseg>
<trkpt lat="38.26646" lon="-120.34287">
<ele>1183.1</ele>
<time>2026-04-22T09:47:27-07:00</time>
</trkpt>
<trkpt lat="38.26654" lon="-120.34289">
<ele>1182.7</ele>
<time>2026-04-22T09:47:28-07:00</time>
</trkpt>
<trkpt lat="38.2666" lon="-120.34284">
<ele>1182.4</ele>
<time>2026-04-22T09:47:29-07:00</time>
</trkpt>
<trkpt lat="38.26666" lon="-120.34272">
<ele>1182.7</ele>
<time>2026-04-22T09:47:30-07:00</time>
</trkpt>
<trkpt lat="38.2667" lon="-120.34254">
<ele>1182.6</ele>
<time>2026-04-22T09:47:31-07:00</time>
</trkpt>
<trkpt lat="38.2667" lon="-120.3424">
<ele>1183.1</ele>
<time>2026-04-22T09:47:32-07:00</time>
</trkpt>
<trkpt lat="38.26673" lon="-120.34229">
<ele>1183.2</ele>
<time>2026-04-22T09:47:33-07:00</time>
</trkpt>
<trkpt lat="38.2668" lon="-120.34218">
<ele>1182.8</ele>
<time>2026-04-22T09:47:34-07:00</time>
</trkpt>
<trkpt lat="38.26686" lon="-120.34188">
<ele>1181</ele>
<time>2026-04-22T09:47:35-07:00</time>
</trkpt>
<trkpt lat="38.26691" lon="-120.34179">
<ele>1182</ele>
<time>2026-04-22T09:47:36-07:00</time>
</trkpt>
<trkpt lat="38.267" lon="-120.34173">
<ele>1181.9</ele>
<time>2026-04-22T09:47:37-07:00</time>
</trkpt>
<trkpt lat="38.26714" lon="-120.34159">
<ele>1181.6</ele>
<time>2026-04-22T09:47:38-07:00</time>
</trkpt>
<trkpt lat="38.2673" lon="-120.34131">
<ele>1181.7</ele>
<time>2026-04-22T09:47:39-07:00</time>
</trkpt>
<trkpt lat="38.26744" lon="-120.34094">
<ele>1182.1</ele>
<time>2026-04-22T09:47:40-07:00</time>
</trkpt>
<trkpt lat="38.26767" lon="-120.34063">
<ele>1184.9</ele>
<time>2026-04-22T09:47:41-07:00</time>
</trkpt>
<trkpt lat="38.26775" lon="-120.34057">
<ele>1184.6</ele>
<time>2026-04-22T09:47:42-07:00</time>
</trkpt>
<trkpt lat="38.26786" lon="-120.34039">
<ele>1184.9</ele>
<time>2026-04-22T09:47:43-07:00</time>
</trkpt>
<trkpt lat="38.268" lon="-120.34025">
<ele>1184.8</ele>
<time>2026-04-22T09:47:44-07:00</time>
</trkpt>
<trkpt lat="38.2682" lon="-120.34015">
<ele>1184.1</ele>
<time>2026-04-22T09:47:45-07:00</time>
</trkpt>
<trkpt lat="38.26826" lon="-120.34008">
<ele>1183.2</ele>
<time>2026-04-22T09:47:46-07:00</time>
</trkpt>
<trkpt lat="38.26845" lon="-120.33998">
<ele>1182.4</ele>
<time>2026-04-22T09:47:47-07:00</time>
</trkpt>
<trkpt lat="38.26852" lon="-120.33992">
<ele>1182.3</ele>
<time>2026-04-22T09:47:48-07:00</time>
</trkpt>
<trkpt lat="38.26871" lon="-120.33988">
<ele>1182.1</ele>
<time>2026-04-22T09:47:49-07:00</time>
</trkpt>
<trkpt lat="38.2688" lon="-120.33984">
<ele>1182</ele>
<time>2026-04-22T09:47:50-07:00</time>
</trkpt>
<trkpt lat="38.26897" lon="-120.33971">
<ele>1181.9</ele>
<time>2026-04-22T09:47:51-07:00</time>
</trkpt>
<trkpt lat="38.26922" lon="-120.33957">
<ele>1181.1</ele>
<time>2026-04-22T09:47:52-07:00</time>
</trkpt>
<trkpt lat="38.26932" lon="-120.33952">
<ele>1181.3</ele>
<time>2026-04-22T09:47:53-07:00</time>
</trkpt>
<trkpt lat="38.2695" lon="-120.33939">
<ele>1180.9</ele>
<time>2026-04-22T09:47:54-07:00</time>
</trkpt>
<trkpt lat="38.26959" lon="-120.33932">
<ele>1181.7</ele>
<time>2026-04-22T09:47:55-07:00</time>
</trkpt>
<trkpt lat="38.26968" lon="-120.33934">
<ele>1180.9</ele>
<time>2026-04-22T09:47:56-07:00</time>
</trkpt>
<trkpt lat="38.26986" lon="-120.3393">
<ele>1180.9</ele>
<time>2026-04-22T09:47:57-07:00</time>
</trkpt>
<trkpt lat="38.27006" lon="-120.33923">
<ele>1181.3</ele>
<time>2026-04-22T09:47:58-07:00</time>
</trkpt>
<trkpt lat="38.27015" lon="-120.33917">
<ele>1181.3</ele>
<time>2026-04-22T09:47:59-07:00</time>
</trkpt>
<trkpt lat="38.27025" lon="-120.33907">
<ele>1182</ele>
<time>2026-04-22T09:48:00-07:00</time>
</trkpt>
<trkpt lat="38.27034" lon="-120.33897">
<ele>1182.6</ele>
<time>2026-04-22T09:48:01-07:00</time>
</trkpt>
<trkpt lat="38.27049" lon="-120.33885">
<ele>1183.1</ele>
<time>2026-04-22T09:48:02-07:00</time>
</trkpt>
<trkpt lat="38.27078" lon="-120.33868">
<ele>1183.6</ele>
<time>2026-04-22T09:48:03-07:00</time>
</trkpt>
<trkpt lat="38.27098" lon="-120.33864">
<ele>1183.2</ele>
<time>2026-04-22T09:48:04-07:00</time>
</trkpt>
<trkpt lat="38.27135" lon="-120.33853">
<ele>1183.2</ele>
<time>2026-04-22T09:48:05-07:00</time>
</trkpt>
<trkpt lat="38.272" lon="-120.33827">
<ele>1184.2</ele>
<time>2026-04-22T09:48:06-07:00</time>
</trkpt>
<trkpt lat="38.2728" lon="-120.33791">
<ele>1185.5</ele>
<time>2026-04-22T09:48:07-07:00</time>
</trkpt>
<trkpt lat="38.27334" lon="-120.3378">
<ele>1187.2</ele>
<time>2026-04-22T09:48:08-07:00</time>
</trkpt>
<trkpt lat="38.27393" lon="-120.33774">
<ele>1189.3</ele>
<time>2026-04-22T09:48:09-07:00</time>
</trkpt>
<trkpt lat="38.27436" lon="-120.33772">
<ele>1188.7</ele>
<time>2026-04-22T09:48:10-07:00</time>
</trkpt>
<trkpt lat="38.27466" lon="-120.3379">
<ele>1187.8</ele>
<time>2026-04-22T09:48:11-07:00</time>
</trkpt>
<trkpt lat="38.27489" lon="-120.33822">
<ele>1188</ele>
<time>2026-04-22T09:48:12-07:00</time>
</trkpt>
<trkpt lat="38.27492" lon="-120.33876">
<ele>1187.6</ele>
<time>2026-04-22T09:48:13-07:00</time>
</trkpt>
<trkpt lat="38.27466" lon="-120.33912">
<ele>1189.1</ele>
<time>2026-04-22T09:48:14-07:00</time>
</trkpt>
<trkpt lat="38.27421" lon="-120.3392">
<ele>1188</ele>
<time>2026-04-22T09:48:15-07:00</time>
</trkpt>
<trkpt lat="38.27367" lon="-120.33966">
<ele>1188.2</ele>
<time>2026-04-22T09:48:16-07:00</time>
</trkpt>
<trkpt lat="38.27312" lon="-120.33995">
<ele>1186.7</ele>
<time>2026-04-22T09:48:17-07:00</time>
</trkpt>
<trkpt lat="38.27219" lon="-120.34047">
<ele>1188.2</ele>
<time>2026-04-22T09:48:18-07:00</time>
</trkpt>
<trkpt lat="38.27209" lon="-120.3405">
<ele>1188.1</ele>
<time>2026-04-22T09:48:19-07:00</time>
</trkpt>
<trkpt lat="38.27188" lon="-120.3405">
<ele>1187.6</ele>
<time>2026-04-22T09:48:20-07:00</time>
</trkpt>
<trkpt lat="38.2717" lon="-120.34052">
<ele>1185.5</ele>
<time>2026-04-22T09:48:21-07:00</time>
</trkpt>
<trkpt lat="38.27121" lon="-120.34067">
<ele>1185.6</ele>
<time>2026-04-22T09:48:22-07:00</time>
</trkpt>
<trkpt lat="38.27111" lon="-120.34073">
<ele>1184.4</ele>
<time>2026-04-22T09:48:23-07:00</time>
</trkpt>
<trkpt lat="38.27087" lon="-120.34085">
<ele>1184.3</ele>
<time>2026-04-22T09:48:24-07:00</time>
</trkpt>
<trkpt lat="38.27074" lon="-120.3409">
<ele>1182.2</ele>
<time>2026-04-22T09:48:25-07:00</time>
</trkpt>
<trkpt lat="38.27065" lon="-120.34101">
<ele>1183.6</ele>
<time>2026-04-22T09:48:26-07:00</time>
</trkpt>
<trkpt lat="38.27058" lon="-120.34112">
<ele>1185.5</ele>
<time>2026-04-22T09:48:27-07:00</time>
</trkpt>
<trkpt lat="38.2704" lon="-120.34132">
<ele>1185.8</ele>
<time>2026-04-22T09:48:28-07:00</time>
</trkpt>
<trkpt lat="38.27015" lon="-120.34154">
<ele>1184.3</ele>
<time>2026-04-22T09:48:29-07:00</time>
</trkpt>
<trkpt lat="38.26997" lon="-120.34167">
<ele>1184.1</ele>
<time>2026-04-22T09:48:30-07:00</time>
</trkpt>
<trkpt lat="38.26992" lon="-120.34176">
<ele>1186</ele>
<time>2026-04-22T09:48:31-07:00</time>
</trkpt>
<trkpt lat="38.26965" lon="-120.34185">
<ele>1183.8</ele>
<time>2026-04-22T09:48:32-07:00</time>
</trkpt>
<trkpt lat="38.26933" lon="-120.34213">
<ele>1185.8</ele>
<time>2026-04-22T09:48:33-07:00</time>
</trkpt>
<trkpt lat="38.26898" lon="-120.34233">
<ele>1182.2</ele>
<time>2026-04-22T09:48:34-07:00</time>
</trkpt>
<trkpt lat="38.26891" lon="-120.34241">
<ele>1184.9</ele>
<time>2026-04-22T09:48:35-07:00</time>
</trkpt>
<trkpt lat="38.26871" lon="-120.34265">
<ele>1184.9</ele>
<time>2026-04-22T09:48:36-07:00</time>
</trkpt>
<trkpt lat="38.26857" lon="-120.34306">
<ele>1185.5</ele>
<time>2026-04-22T09:48:37-07:00</time>
</trkpt>
<trkpt lat="38.26859" lon="-120.34373">
<ele>1184.6</ele>
<time>2026-04-22T09:48:38-07:00</time>
</trkpt>
<trkpt lat="38.26854" lon="-120.34382">
<ele>1185.5</ele>
<time>2026-04-22T09:48:39-07:00</time>
</trkpt>
<trkpt lat="38.26843" lon="-120.34396">
<ele>1185</ele>
<time>2026-04-22T09:48:40-07:00</time>
</trkpt>
<trkpt lat="38.26819" lon="-120.34401">
<ele>1181</ele>
<time>2026-04-22T09:48:41-07:00</time>
</trkpt>
<trkpt lat="38.26803" lon="-120.3441">
<ele>1178.2</ele>
<time>2026-04-22T09:48:42-07:00</time>
</trkpt>
<trkpt lat="38.26782" lon="-120.34421">
<ele>1174.6</ele>
<time>2026-04-22T09:48:43-07:00</time>
</trkpt>
<trkpt lat="38.26768" lon="-120.34433">
<ele>1175.3</ele>
<time>2026-04-22T09:48:44-07:00</time>
</trkpt>
<trkpt lat="38.26739" lon="-120.34442">
<ele>1171.9</ele>
<time>2026-04-22T09:48:45-07:00</time>
</trkpt>
<trkpt lat="38.2674" lon="-120.34462">
<ele>1171.8</ele>
<time>2026-04-22T09:48:46-07:00</time>
</trkpt>
<trkpt lat="38.26753" lon="-120.34497">
<ele>1171</ele>
<time>2026-04-22T09:48:47-07:00</time>
</trkpt>
<trkpt lat="38.26771" lon="-120.3451">
<ele>1171.6</ele>
<time>2026-04-22T09:48:48-07:00</time>
</trkpt>
<trkpt lat="38.26774" lon="-120.34518">
<ele>1171.6</ele>
<time>2026-04-22T09:48:49-07:00</time>
</trkpt>
<trkpt lat="38.26789" lon="-120.34531">
<ele>1172.3</ele>
<time>2026-04-22T09:48:50-07:00</time>
</trkpt>
<trkpt lat="38.26797" lon="-120.34545">
<ele>1172</ele>
<time>2026-04-22T09:48:51-07:00</time>
</trkpt>
<trkpt lat="38.26798" lon="-120.34552">
<ele>1173.7</ele>
<time>2026-04-22T09:48:52-07:00</time>
</trkpt>
<trkpt lat="38.26803" lon="-120.34555">
<ele>1173.7</ele>
<time>2026-04-22T09:48:53-07:00</time>
</trkpt>
<trkpt lat="38.26823" lon="-120.3458">
<ele>1174.1</ele>
<time>2026-04-22T09:48:54-07:00</time>
</trkpt>
<trkpt lat="38.26851" lon="-120.34606">
<ele>1173.7</ele>
<time>2026-04-22T09:48:55-07:00</time>
</trkpt>
<trkpt lat="38.26859" lon="-120.34616">
<ele>1173.5</ele>
<time>2026-04-22T09:48:56-07:00</time>
</trkpt>
<trkpt lat="38.26882" lon="-120.34636">
<ele>1170</ele>
<time>2026-04-22T09:48:57-07:00</time>
</trkpt>
<trkpt lat="38.26906" lon="-120.3466">
<ele>1174.5</ele>
<time>2026-04-22T09:48:58-07:00</time>
</trkpt>
<trkpt lat="38.26912" lon="-120.3466">
<ele>1173.9</ele>
<time>2026-04-22T09:48:59-07:00</time>
</trkpt>
<trkpt lat="38.26916" lon="-120.34655">
<ele>1174.2</ele>
<time>2026-04-22T09:49:00-07:00</time>
</trkpt>
<trkpt lat="38.2692" lon="-120.34643">
<ele>1172.4</ele>
<time>2026-04-22T09:49:01-07:00</time>
</trkpt>
<trkpt lat="38.26916" lon="-120.34609">
<ele>1176.6</ele>
<time>2026-04-22T09:49:02-07:00</time>
</trkpt>
<trkpt lat="38.26918" lon="-120.34595">
<ele>1176.7</ele>
<time>2026-04-22T09:49:03-07:00</time>
</trkpt>
<trkpt lat="38.26926" lon="-120.34594">
<ele>1177.4</ele>
<time>2026-04-22T09:49:04-07:00</time>
</trkpt>
<trkpt lat="38.26938" lon="-120.34602">
<ele>1177.3</ele>
<time>2026-04-22T09:49:05-07:00</time>
</trkpt>
<trkpt lat="38.2695" lon="-120.34619">
<ele>1177.4</ele>
<time>2026-04-22T09:49:06-07:00</time>
</trkpt>
<trkpt lat="38.26959" lon="-120.34649">
<ele>1175.3</ele>
<time>2026-04-22T09:49:07-07:00</time>
</trkpt>
<trkpt lat="38.26962" lon="-120.34665">
<ele>1175.1</ele>
<time>2026-04-22T09:49:08-07:00</time>
</trkpt>
<trkpt lat="38.26957" lon="-120.34705">
<ele>1181.7</ele>
<time>2026-04-22T09:49:09-07:00</time>
</trkpt>
<trkpt lat="38.26951" lon="-120.34727">
<ele>1180</ele>
<time>2026-04-22T09:49:10-07:00</time>
</trkpt>
<trkpt lat="38.26944" lon="-120.34747">
<ele>1179.7</ele>
<time>2026-04-22T09:49:11-07:00</time>
</trkpt>
<trkpt lat="38.26914" lon="-120.34811">
<ele>1177.5</ele>
<time>2026-04-22T09:49:12-07:00</time>
</trkpt>
<trkpt lat="38.26885" lon="-120.34855">
<ele>1177</ele>
<time>2026-04-22T09:49:13-07:00</time>
</trkpt>
<trkpt lat="38.26867" lon="-120.34877">
<ele>1175.5</ele>
<time>2026-04-22T09:49:14-07:00</time>
</trkpt>
<trkpt lat="38.2685" lon="-120.34886">
<ele>1176.1</ele>
<time>2026-04-22T09:49:15-07:00</time>
</trkpt>
<trkpt lat="38.26823" lon="-120.34897">
<ele>1176.9</ele>
<time>2026-04-22T09:49:16-07:00</time>
</trkpt>
<trkpt lat="38.26803" lon="-120.34908">
<ele>1179</ele>
<time>2026-04-22T09:49:17-07:00</time>
</trkpt>
<trkpt lat="38.26787" lon="-120.3492">
<ele>1177.2</ele>
<time>2026-04-22T09:49:18-07:00</time>
</trkpt>
<trkpt lat="38.26747" lon="-120.34939">
<ele>1175.3</ele>
<time>2026-04-22T09:49:19-07:00</time>
</trkpt>
<trkpt lat="38.26723" lon="-120.34953">
<ele>1171.9</ele>
<time>2026-04-22T09:49:20-07:00</time>
</trkpt>
<trkpt lat="38.26717" lon="-120.34971">
<ele>1171.9</ele>
<time>2026-04-22T09:49:21-07:00</time>
</trkpt>
<trkpt lat="38.26715" lon="-120.34998">
<ele>1170.6</ele>
<time>2026-04-22T09:49:22-07:00</time>
</trkpt>
<trkpt lat="38.26724" lon="-120.35024">
<ele>1168.2</ele>
<time>2026-04-22T09:49:23-07:00</time>
</trkpt>
<trkpt lat="38.26738" lon="-120.35044">
<ele>1168.2</ele>
<time>2026-04-22T09:49:24-07:00</time>
</trkpt>
<trkpt lat="38.26747" lon="-120.35069">
<ele>1168.3</ele>
<time>2026-04-22T09:49:25-07:00</time>
</trkpt>
<trkpt lat="38.26748" lon="-120.35092">
<ele>1168.1</ele>
<time>2026-04-22T09:49:26-07:00</time>
</trkpt>
<trkpt lat="38.26744" lon="-120.35118">
<ele>1169</ele>
<time>2026-04-22T09:49:27-07:00</time>
</trkpt>
<trkpt lat="38.26741" lon="-120.35151">
<ele>1170.9</ele>
<time>2026-04-22T09:49:28-07:00</time>
</trkpt>
<trkpt lat="38.26734" lon="-120.35176">
<ele>1169.5</ele>
<time>2026-04-22T09:49:29-07:00</time>
</trkpt>
<trkpt lat="38.26722" lon="-120.352">
<ele>1166.7</ele>
<time>2026-04-22T09:49:30-07:00</time>
</trkpt>
<trkpt lat="38.26697" lon="-120.35236">
<ele>1164.4</ele>
<time>2026-04-22T09:49:31-07:00</time>
</trkpt>
<trkpt lat="38.26675" lon="-120.35266">
<ele>1166.1</ele>
<time>2026-04-22T09:49:32-07:00</time>
</trkpt>
<trkpt lat="38.2663" lon="-120.35338">
<ele>1171.3</ele>
<time>2026-04-22T09:49:33-07:00</time>
</trkpt>
<trkpt lat="38.26603" lon="-120.35418">
<ele>1177.7</ele>
<time>2026-04-22T09:49:34-07:00</time>
</trkpt>
<trkpt lat="38.26582" lon="-120.35449">
<ele>1171.8</ele>
<time>2026-04-22T09:49:35-07:00</time>
</trkpt>
<trkpt lat="38.26558" lon="-120.35482">
<ele>1175.8</ele>
<time>2026-04-22T09:49:36-07:00</time>
</trkpt>
<trkpt lat="38.26541" lon="-120.35495">
<ele>1172</ele>
<time>2026-04-22T09:49:37-07:00</time>
</trkpt>
<trkpt lat="38.26518" lon="-120.35507">
<ele>1170.5</ele>
<time>2026-04-22T09:49:38-07:00</time>
</trkpt>
<trkpt lat="38.26488" lon="-120.35506">
<ele>1169.2</ele>
<time>2026-04-22T09:49:39-07:00</time>
</trkpt>
<trkpt lat="38.26449" lon="-120.35501">
<ele>1171</ele>
<time>2026-04-22T09:49:40-07:00</time>
</trkpt>
<trkpt lat="38.26429" lon="-120.35515">
<ele>1170.3</ele>
<time>2026-04-22T09:49:41-07:00</time>
</trkpt>
<trkpt lat="38.26412" lon="-120.35545">
<ele>1170.1</ele>
<time>2026-04-22T09:49:42-07:00</time>
</trkpt>
<trkpt lat="38.26404" lon="-120.35581">
<ele>1168.5</ele>
<time>2026-04-22T09:49:43-07:00</time>
</trkpt>
<trkpt lat="38.26412" lon="-120.35631">
<ele>1170.5</ele>
<time>2026-04-22T09:49:44-07:00</time>
</trkpt>
<trkpt lat="38.26406" lon="-120.35663">
<ele>1173.5</ele>
<time>2026-04-22T09:49:45-07:00</time>
</trkpt>
<trkpt lat="38.26415" lon="-120.35695">
<ele>1176.4</ele>
<time>2026-04-22T09:49:46-07:00</time>
</trkpt>
<trkpt lat="38.26449" lon="-120.35767">
<ele>1179</ele>
<time>2026-04-22T09:49:47-07:00</time>
</trkpt>
<trkpt lat="38.2646" lon="-120.35814">
<ele>1177.7</ele>
<time>2026-04-22T09:49:48-07:00</time>
</trkpt>
<trkpt lat="38.26459" lon="-120.35848">
<ele>1173.1</ele>
<time>2026-04-22T09:49:49-07:00</time>
</trkpt>
<trkpt lat="38.26444" lon="-120.35874">
<ele>1178.6</ele>
<time>2026-04-22T09:49:50-07:00</time>
</trkpt>
<trkpt lat="38.26426" lon="-120.35889">
<ele>1179.1</ele>
<time>2026-04-22T09:49:51-07:00</time>
</trkpt>
<trkpt lat="38.26406" lon="-120.35917">
<ele>1177.5</ele>
<time>2026-04-22T09:49:52-07:00</time>
</trkpt>
<trkpt lat="38.26388" lon="-120.35959">
<ele>1175.8</ele>
<time>2026-04-22T09:49:53-07:00</time>
</trkpt>
<trkpt lat="38.26365" lon="-120.36024">
<ele>1177.4</ele>
<time>2026-04-22T09:49:54-07:00</time>
</trkpt>
<trkpt lat="38.26329" lon="-120.36064">
<ele>1180.8</ele>
<time>2026-04-22T09:49:55-07:00</time>
</trkpt>
<trkpt lat="38.2632" lon="-120.36081">
<ele>1182</ele>
<time>2026-04-22T09:49:56-07:00</time>
</trkpt>
<trkpt lat="38.26319" lon="-120.36102">
<ele>1186</ele>
<time>2026-04-22T09:49:57-07:00</time>
</trkpt>
<trkpt lat="38.26319" lon="-120.36141">
<ele>1187.2</ele>
<time>2026-04-22T09:49:58-07:00</time>
</trkpt>
<trkpt lat="38.26328" lon="-120.36171">
<ele>1186.6</ele>
<time>2026-04-22T09:49:59-07:00</time>
</trkpt>
<trkpt lat="38.26344" lon="-120.36194">
<ele>1188.1</ele>
<time>2026-04-22T09:50:00-07:00</time>
</trkpt>
<trkpt lat="38.26366" lon="-120.36217">
<ele>1187.7</ele>
<time>2026-04-22T09:50:01-07:00</time>
</trkpt>
<trkpt lat="38.26387" lon="-120.36239">
<ele>1188</ele>
<time>2026-04-22T09:50:02-07:00</time>
</trkpt>
<trkpt lat="38.26421" lon="-120.36262">
<ele>1189.8</ele>
<time>2026-04-22T09:50:03-07:00</time>
</trkpt>
<trkpt lat="38.26433" lon="-120.36276">
<ele>1190.5</ele>
<time>2026-04-22T09:50:04-07:00</time>
</trkpt>
<trkpt lat="38.26439" lon="-120.36284">
<ele>1191</ele>
<time>2026-04-22T09:50:05-07:00</time>
</trkpt>
<trkpt lat="38.26442" lon="-120.36296">
<ele>1190.7</ele>
<time>2026-04-22T09:50:06-07:00</time>
</trkpt>
<trkpt lat="38.26443" lon="-120.36303">
<ele>1189.6</ele>
<time>2026-04-22T09:50:07-07:00</time>
</trkpt>
<trkpt lat="38.26441" lon="-120.3631">
<ele>1190.2</ele>
<time>2026-04-22T09:50:08-07:00</time>
</trkpt>
<trkpt lat="38.26432" lon="-120.36317">
<ele>1192.2</ele>
<time>2026-04-22T09:50:09-07:00</time>
</trkpt>
<trkpt lat="38.26413" lon="-120.3632">
<ele>1194.8</ele>
<time>2026-04-22T09:50:10-07:00</time>
</trkpt>
<trkpt lat="38.26325" lon="-120.36332">
<ele>1203.6</ele>
<time>2026-04-22T09:50:11-07:00</time>
</trkpt>
<trkpt lat="38.26303" lon="-120.36349">
<ele>1206.6</ele>
<time>2026-04-22T09:50:12-07:00</time>
</trkpt>
<trkpt lat="38.26294" lon="-120.36368">
<ele>1205.4</ele>
<time>2026-04-22T09:50:13-07:00</time>
</trkpt>
<trkpt lat="38.26293" lon="-120.3639">
<ele>1202</ele>
<time>2026-04-22T09:50:14-07:00</time>
</trkpt>
<trkpt lat="38.26299" lon="-120.36406">
<ele>1202.5</ele>
<time>2026-04-22T09:50:15-07:00</time>
</trkpt>
<trkpt lat="38.26308" lon="-120.3642">
<ele>1199.2</ele>
<time>2026-04-22T09:50:16-07:00</time>
</trkpt>
<trkpt lat="38.26323" lon="-120.36435">
<ele>1198.5</ele>
<time>2026-04-22T09:50:17-07:00</time>
</trkpt>
<trkpt lat="38.26346" lon="-120.36444">
<ele>1197</ele>
<time>2026-04-22T09:50:18-07:00</time>
</trkpt>
<trkpt lat="38.26357" lon="-120.36457">
<ele>1194.2</ele>
<time>2026-04-22T09:50:19-07:00</time>
</trkpt>
<trkpt lat="38.26356" lon="-120.36469">
<ele>1196.3</ele>
<time>2026-04-22T09:50:20-07:00</time>
</trkpt>
<trkpt lat="38.2635" lon="-120.36477">
<ele>1197.6</ele>
<time>2026-04-22T09:50:21-07:00</time>
</trkpt>
<trkpt lat="38.26323" lon="-120.36492">
<ele>1199.3</ele>
<time>2026-04-22T09:50:22-07:00</time>
</trkpt>
<trkpt lat="38.263" lon="-120.3649">
<ele>1192.8</ele>
<time>2026-04-22T09:50:23-07:00</time>
</trkpt>
<trkpt lat="38.26271" lon="-120.3649">
<ele>1185.3</ele>
<time>2026-04-22T09:50:24-07:00</time>
</trkpt>
<trkpt lat="38.26258" lon="-120.36496">
<ele>1180.8</ele>
<time>2026-04-22T09:50:25-07:00</time>
</trkpt>
<trkpt lat="38.26247" lon="-120.3651">
<ele>1176.4</ele>
<time>2026-04-22T09:50:26-07:00</time>
</trkpt>
<trkpt lat="38.26239" lon="-120.36535">
<ele>1172.7</ele>
<time>2026-04-22T09:50:27-07:00</time>
</trkpt>
<trkpt lat="38.26245" lon="-120.36565">
<ele>1173.1</ele>
<time>2026-04-22T09:50:28-07:00</time>
</trkpt>
<trkpt lat="38.26236" lon="-120.36581">
<ele>1173.4</ele>
<time>2026-04-22T09:50:29-07:00</time>
</trkpt>
<trkpt lat="38.26218" lon="-120.36591">
<ele>1172.2</ele>
<time>2026-04-22T09:50:30-07:00</time>
</trkpt>
<trkpt lat="38.26202" lon="-120.36604">
<ele>1170</ele>
<time>2026-04-22T09:50:31-07:00</time>
</trkpt>
<trkpt lat="38.26189" lon="-120.36629">
<ele>1168.2</ele>
<time>2026-04-22T09:50:32-07:00</time>
</trkpt>
<trkpt lat="38.26169" lon="-120.36642">
<ele>1169.9</ele>
<time>2026-04-22T09:50:33-07:00</time>
</trkpt>
<trkpt lat="38.26145" lon="-120.36649">
<ele>1164.6</ele>
<time>2026-04-22T09:50:34-07:00</time>
</trkpt>
<trkpt lat="38.26121" lon="-120.36658">
<ele>1165.4</ele>
<time>2026-04-22T09:50:35-07:00</time>
</trkpt>
<trkpt lat="38.26093" lon="-120.36659">
<ele>1161.5</ele>
<time>2026-04-22T09:50:36-07:00</time>
</trkpt>
<trkpt lat="38.26066" lon="-120.36667">
<ele>1162.3</ele>
<time>2026-04-22T09:50:37-07:00</time>
</trkpt>
<trkpt lat="38.26048" lon="-120.36676">
<ele>1162.5</ele>
<time>2026-04-22T09:50:38-07:00</time>
</trkpt>
<trkpt lat="38.2603" lon="-120.36693">
<ele>1159.1</ele>
<time>2026-04-22T09:50:39-07:00</time>
</trkpt>
<trkpt lat="38.26017" lon="-120.36709">
<ele>1156.5</ele>
<time>2026-04-22T09:50:40-07:00</time>
</trkpt>
<trkpt lat="38.26018" lon="-120.36761">
<ele>1153.4</ele>
<time>2026-04-22T09:50:41-07:00</time>
</trkpt>
<trkpt lat="38.26011" lon="-120.36792">
<ele>1152.2</ele>
<time>2026-04-22T09:50:42-07:00</time>
</trkpt>
<trkpt lat="38.2601" lon="-120.36822">
<ele>1151</ele>
<time>2026-04-22T09:50:43-07:00</time>
</trkpt>
<trkpt lat="38.26002" lon="-120.36848">
<ele>1149.3</ele>
<time>2026-04-22T09:50:44-07:00</time>
</trkpt>
<trkpt lat="38.25992" lon="-120.36868">
<ele>1150.6</ele>
<time>2026-04-22T09:50:45-07:00</time>
</trkpt>
<trkpt lat="38.25979" lon="-120.36887">
<ele>1145.8</ele>
<time>2026-04-22T09:50:46-07:00</time>
</trkpt>
<trkpt lat="38.25977" lon="-120.3691">
<ele>1147.4</ele>
<time>2026-04-22T09:50:47-07:00</time>
</trkpt>
<trkpt lat="38.25972" lon="-120.36952">
<ele>1144.2</ele>
<time>2026-04-22T09:50:48-07:00</time>
</trkpt>
<trkpt lat="38.25999" lon="-120.37095">
<ele>1134.2</ele>
<time>2026-04-22T09:50:49-07:00</time>
</trkpt>
<trkpt lat="38.25995" lon="-120.37105">
<ele>1134.1</ele>
<time>2026-04-22T09:50:50-07:00</time>
</trkpt>
<trkpt lat="38.25983" lon="-120.37113">
<ele>1130.8</ele>
<time>2026-04-22T09:50:51-07:00</time>
</trkpt>
<trkpt lat="38.25956" lon="-120.37162">
<ele>1125.1</ele>
<time>2026-04-22T09:50:52-07:00</time>
</trkpt>
<trkpt lat="38.25939" lon="-120.37184">
<ele>1121.7</ele>
<time>2026-04-22T09:50:53-07:00</time>
</trkpt>
<trkpt lat="38.2593" lon="-120.37191">
<ele>1124</ele>
<time>2026-04-22T09:50:54-07:00</time>
</trkpt>
<trkpt lat="38.25927" lon="-120.37204">
<ele>1122.3</ele>
<time>2026-04-22T09:50:55-07:00</time>
</trkpt>
<trkpt lat="38.25913" lon="-120.3721">
<ele>1124.4</ele>
<time>2026-04-22T09:50:56-07:00</time>
</trkpt>
<trkpt lat="38.25897" lon="-120.37193">
<ele>1126.6</ele>
<time>2026-04-22T09:50:57-07:00</time>
</trkpt>
<trkpt lat="38.25884" lon="-120.37183">
<ele>1127.7</ele>
<time>2026-04-22T09:50:58-07:00</time>
</trkpt>
<trkpt lat="38.25882" lon="-120.37166">
<ele>1128.6</ele>
<time>2026-04-22T09:50:59-07:00</time>
</trkpt>
<trkpt lat="38.25888" lon="-120.37143">
<ele>1130.9</ele>
<time>2026-04-22T09:51:00-07:00</time>
</trkpt>
<trkpt lat="38.25904" lon="-120.37111">
<ele>1134.7</ele>
<time>2026-04-22T09:51:01-07:00</time>
</trkpt>
<trkpt lat="38.25899" lon="-120.37102">
<ele>1134.7</ele>
<time>2026-04-22T09:51:02-07:00</time>
</trkpt>
<trkpt lat="38.25886" lon="-120.37107">
<ele>1137.4</ele>
<time>2026-04-22T09:51:03-07:00</time>
</trkpt>
<trkpt lat="38.25854" lon="-120.3713">
<ele>1140</ele>
<time>2026-04-22T09:51:04-07:00</time>
</trkpt>
<trkpt lat="38.25831" lon="-120.37139">
<ele>1141.6</ele>
<time>2026-04-22T09:51:05-07:00</time>
</trkpt>
<trkpt lat="38.25804" lon="-120.3714">
<ele>1143.9</ele>
<time>2026-04-22T09:51:06-07:00</time>
</trkpt>
<trkpt lat="38.25775" lon="-120.37135">
<ele>1147.5</ele>
<time>2026-04-22T09:51:07-07:00</time>
</trkpt>
<trkpt lat="38.25765" lon="-120.37129">
<ele>1151.1</ele>
<time>2026-04-22T09:51:08-07:00</time>
</trkpt>
<trkpt lat="38.25777" lon="-120.37124">
<ele>1150.7</ele>
<time>2026-04-22T09:51:09-07:00</time>
</trkpt>
<trkpt lat="38.25796" lon="-120.37118">
<ele>1152.7</ele>
<time>2026-04-22T09:51:10-07:00</time>
</trkpt>
<trkpt lat="38.25811" lon="-120.37093">
<ele>1155.2</ele>
<time>2026-04-22T09:51:11-07:00</time>
</trkpt>
<trkpt lat="38.25826" lon="-120.3706">
<ele>1158.4</ele>
<time>2026-04-22T09:51:12-07:00</time>
</trkpt>
<trkpt lat="38.25835" lon="-120.37022">
<ele>1158.1</ele>
<time>2026-04-22T09:51:13-07:00</time>
</trkpt>
<trkpt lat="38.25831" lon="-120.36964">
<ele>1160</ele>
<time>2026-04-22T09:51:14-07:00</time>
</trkpt>
<trkpt lat="38.25809" lon="-120.3688">
<ele>1162.9</ele>
<time>2026-04-22T09:51:15-07:00</time>
</trkpt>
<trkpt lat="38.25806" lon="-120.36892">
<ele>1163.4</ele>
<time>2026-04-22T09:51:16-07:00</time>
</trkpt>
<trkpt lat="38.25806" lon="-120.36904">
<ele>1165.1</ele>
<time>2026-04-22T09:51:17-07:00</time>
</trkpt>
<trkpt lat="38.25808" lon="-120.36919">
<ele>1165.8</ele>
<time>2026-04-22T09:51:18-07:00</time>
</trkpt>
<trkpt lat="38.25806" lon="-120.36972">
<ele>1168.9</ele>
<time>2026-04-22T09:51:19-07:00</time>
</trkpt>
<trkpt lat="38.258" lon="-120.36997">
<ele>1173.5</ele>
<time>2026-04-22T09:51:20-07:00</time>
</trkpt>
<trkpt lat="38.25786" lon="-120.37025">
<ele>1176.7</ele>
<time>2026-04-22T09:51:21-07:00</time>
</trkpt>
<trkpt lat="38.25757" lon="-120.37048">
<ele>1180.1</ele>
<time>2026-04-22T09:51:22-07:00</time>
</trkpt>
<trkpt lat="38.25735" lon="-120.3706">
<ele>1181.7</ele>
<time>2026-04-22T09:51:23-07:00</time>
</trkpt>
<trkpt lat="38.25715" lon="-120.37064">
<ele>1183.3</ele>
<time>2026-04-22T09:51:24-07:00</time>
</trkpt>
<trkpt lat="38.25695" lon="-120.3706">
<ele>1184.3</ele>
<time>2026-04-22T09:51:25-07:00</time>
</trkpt>
<trkpt lat="38.25669" lon="-120.37042">
<ele>1188</ele>
<time>2026-04-22T09:51:26-07:00</time>
</trkpt>
<trkpt lat="38.25645" lon="-120.37029">
<ele>1189.4</ele>
<time>2026-04-22T09:51:27-07:00</time>
</trkpt>
<trkpt lat="38.25612" lon="-120.37019">
<ele>1188.6</ele>
<time>2026-04-22T09:51:28-07:00</time>
</trkpt>
<trkpt lat="38.25586" lon="-120.36998">
<ele>1189.1</ele>
<time>2026-04-22T09:51:29-07:00</time>
</trkpt>
<trkpt lat="38.25573" lon="-120.36995">
<ele>1188.9</ele>
<time>2026-04-22T09:51:30-07:00</time>
</trkpt>
<trkpt lat="38.25565" lon="-120.36996">
<ele>1188.9</ele>
<time>2026-04-22T09:51:31-07:00</time>
</trkpt>
<trkpt lat="38.25531" lon="-120.37011">
<ele>1192.3</ele>
<time>2026-04-22T09:51:32-07:00</time>
</trkpt>
<trkpt lat="38.25517" lon="-120.37012">
<ele>1194.5</ele>
<time>2026-04-22T09:51:33-07:00</time>
</trkpt>
<trkpt lat="38.25504" lon="-120.37011">
<ele>1195</ele>
<time>2026-04-22T09:51:34-07:00</time>
</trkpt>
<trkpt lat="38.25489" lon="-120.37005">
<ele>1197.6</ele>
<time>2026-04-22T09:51:35-07:00</time>
</trkpt>
<trkpt lat="38.25475" lon="-120.37005">
<ele>1198.3</ele>
<time>2026-04-22T09:51:36-07:00</time>
</trkpt>
<trkpt lat="38.25468" lon="-120.3701">
<ele>1199.7</ele>
<time>2026-04-22T09:51:37-07:00</time>
</trkpt>
<trkpt lat="38.25461" lon="-120.3702">
<ele>1202.2</ele>
<time>2026-04-22T09:51:38-07:00</time>
</trkpt>
<trkpt lat="38.25457" lon="-120.37041">
<ele>1203.6</ele>
<time>2026-04-22T09:51:39-07:00</time>
</trkpt>
<trkpt lat="38.25474" lon="-120.37074">
<ele>1204.1</ele>
<time>2026-04-22T09:51:40-07:00</time>
</trkpt>
<trkpt lat="38.25488" lon="-120.37081">
<ele>1206</ele>
<time>2026-04-22T09:51:41-07:00</time>
</trkpt>
<trkpt lat="38.25501" lon="-120.3709">
<ele>1207.9</ele>
<time>2026-04-22T09:51:42-07:00</time>
</trkpt>
<trkpt lat="38.25515" lon="-120.37108">
<ele>1210.9</ele>
<time>2026-04-22T09:51:43-07:00</time>
</trkpt>
<trkpt lat="38.25527" lon="-120.3713">
<ele>1215.7</ele>
<time>2026-04-22T09:51:44-07:00</time>
</trkpt>
<trkpt lat="38.25565" lon="-120.3719">
<ele>1211.8</ele>
<time>2026-04-22T09:51:45-07:00</time>
</trkpt>
<trkpt lat="38.2558" lon="-120.37211">
<ele>1212</ele>
<time>2026-04-22T09:51:46-07:00</time>
</trkpt>
<trkpt lat="38.25645" lon="-120.37256">
<ele>1204.2</ele>
<time>2026-04-22T09:51:47-07:00</time>
</trkpt>
<trkpt lat="38.25665" lon="-120.37276">
<ele>1201.4</ele>
<time>2026-04-22T09:51:48-07:00</time>
</trkpt>
<trkpt lat="38.25669" lon="-120.37283">
<ele>1199.8</ele>
<time>2026-04-22T09:51:49-07:00</time>
</trkpt>
<trkpt lat="38.25665" lon="-120.37294">
<ele>1200.4</ele>
<time>2026-04-22T09:51:50-07:00</time>
</trkpt>
<trkpt lat="38.2566" lon="-120.37301">
<ele>1198.9</ele>
<time>2026-04-22T09:51:51-07:00</time>
</trkpt>
<trkpt lat="38.25592" lon="-120.37311">
<ele>1201.9</ele>
<time>2026-04-22T09:51:52-07:00</time>
</trkpt>
<trkpt lat="38.2558" lon="-120.37311">
<ele>1202.2</ele>
<time>2026-04-22T09:51:53-07:00</time>
</trkpt>
<trkpt lat="38.25569" lon="-120.37314">
<ele>1201.1</ele>
<time>2026-04-22T09:51:54-07:00</time>
</trkpt>
<trkpt lat="38.25565" lon="-120.37327">
<ele>1201.1</ele>
<time>2026-04-22T09:51:55-07:00</time>
</trkpt>
<trkpt lat="38.25556" lon="-120.37383">
<ele>1204.2</ele>
<time>2026-04-22T09:51:56-07:00</time>
</trkpt>
<trkpt lat="38.25562" lon="-120.37391">
<ele>1206.5</ele>
<time>2026-04-22T09:51:57-07:00</time>
</trkpt>
<trkpt lat="38.25589" lon="-120.37391">
<ele>1211.1</ele>
<time>2026-04-22T09:51:58-07:00</time>
</trkpt>
<trkpt lat="38.25606" lon="-120.37398">
<ele>1212.6</ele>
<time>2026-04-22T09:51:59-07:00</time>
</trkpt>
<trkpt lat="38.25624" lon="-120.3741">
<ele>1215.6</ele>
<time>2026-04-22T09:52:00-07:00</time>
</trkpt>
<trkpt lat="38.25633" lon="-120.37421">
<ele>1217.1</ele>
<time>2026-04-22T09:52:01-07:00</time>
</trkpt>
<trkpt lat="38.25638" lon="-120.37445">
<ele>1220.7</ele>
<time>2026-04-22T09:52:02-07:00</time>
</trkpt>
<trkpt lat="38.25636" lon="-120.37463">
<ele>1222.4</ele>
<time>2026-04-22T09:52:03-07:00</time>
</trkpt>
<trkpt lat="38.2556" lon="-120.37549">
<ele>1230.7</ele>
<time>2026-04-22T09:52:04-07:00</time>
</trkpt>
<trkpt lat="38.25555" lon="-120.37564">
<ele>1232.3</ele>
<time>2026-04-22T09:52:05-07:00</time>
</trkpt>
<trkpt lat="38.25548" lon="-120.37572">
<ele>1232.9</ele>
<time>2026-04-22T09:52:06-07:00</time>
</trkpt>
<trkpt lat="38.25535" lon="-120.37581">
<ele>1234.4</ele>
<time>2026-04-22T09:52:07-07:00</time>
</trkpt>
<trkpt lat="38.25509" lon="-120.37617">
<ele>1237.7</ele>
<time>2026-04-22T09:52:08-07:00</time>
</trkpt>
<trkpt lat="38.25486" lon="-120.37639">
<ele>1239.3</ele>
<time>2026-04-22T09:52:09-07:00</time>
</trkpt>
<trkpt lat="38.25462" lon="-120.37647">
<ele>1239.5</ele>
<time>2026-04-22T09:52:10-07:00</time>
</trkpt>
<trkpt lat="38.25447" lon="-120.37646">
<ele>1239.7</ele>
<time>2026-04-22T09:52:11-07:00</time>
</trkpt>
<trkpt lat="38.25372" lon="-120.37624">
<ele>1246.5</ele>
<time>2026-04-22T09:52:12-07:00</time>
</trkpt>
<trkpt lat="38.25359" lon="-120.37628">
<ele>1248.4</ele>
<time>2026-04-22T09:52:13-07:00</time>
</trkpt>
<trkpt lat="38.25334" lon="-120.37643">
<ele>1248.5</ele>
<time>2026-04-22T09:52:14-07:00</time>
</trkpt>
<trkpt lat="38.25273" lon="-120.3771">
<ele>1251.4</ele>
<time>2026-04-22T09:52:15-07:00</time>
</trkpt>
<trkpt lat="38.2523" lon="-120.37768">
<ele>1253.5</ele>
<time>2026-04-22T09:52:16-07:00</time>
</trkpt>
<trkpt lat="38.25224" lon="-120.37782">
<ele>1253.8</ele>
<time>2026-04-22T09:52:17-07:00</time>
</trkpt>
<trkpt lat="38.25224" lon="-120.3781">
<ele>1254.9</ele>
<time>2026-04-22T09:52:18-07:00</time>
</trkpt>
<trkpt lat="38.25222" lon="-120.37826">
<ele>1255.2</ele>
<time>2026-04-22T09:52:19-07:00</time>
</trkpt>
<trkpt lat="38.25192" lon="-120.37903">
<ele>1256</ele>
<time>2026-04-22T09:52:20-07:00</time>
</trkpt>
<trkpt lat="38.25166" lon="-120.37985">
<ele>1257.6</ele>
<time>2026-04-22T09:52:21-07:00</time>
</trkpt>
<trkpt lat="38.25154" lon="-120.38028">
<ele>1257.2</ele>
<time>2026-04-22T09:52:22-07:00</time>
</trkpt>
<trkpt lat="38.25151" lon="-120.3805">
<ele>1256.8</ele>
<time>2026-04-22T09:52:23-07:00</time>
</trkpt>
<trkpt lat="38.25141" lon="-120.38064">
<ele>1256.1</ele>
<time>2026-04-22T09:52:24-07:00</time>
</trkpt>
<trkpt lat="38.25127" lon="-120.38068">
<ele>1254.4</ele>
<time>2026-04-22T09:52:25-07:00</time>
</trkpt>
<trkpt lat="38.25113" lon="-120.38055">
<ele>1255.7</ele>
<time>2026-04-22T09:52:26-07:00</time>
</trkpt>
<trkpt lat="38.25088" lon="-120.38005">
<ele>1258</ele>
<time>2026-04-22T09:52:27-07:00</time>
</trkpt>
<trkpt lat="38.25077" lon="-120.37996">
<ele>1258.5</ele>
<time>2026-04-22T09:52:28-07:00</time>
</trkpt>
<trkpt lat="38.25065" lon="-120.38">
<ele>1257.6</ele>
<time>2026-04-22T09:52:29-07:00</time>
</trkpt>
<trkpt lat="38.25061" lon="-120.38011">
<ele>1253.8</ele>
<time>2026-04-22T09:52:30-07:00</time>
</trkpt>
<trkpt lat="38.2505" lon="-120.38004">
<ele>1253.1</ele>
<time>2026-04-22T09:52:31-07:00</time>
</trkpt>
<trkpt lat="38.2504" lon="-120.38">
<ele>1254.7</ele>
<time>2026-04-22T09:52:32-07:00</time>
</trkpt>
<trkpt lat="38.25032" lon="-120.38003">
<ele>1253.8</ele>
<time>2026-04-22T09:52:33-07:00</time>
</trkpt>
<trkpt lat="38.25024" lon="-120.38021">
<ele>1255.1</ele>
<time>2026-04-22T09:52:34-07:00</time>
</trkpt>
<trkpt lat="38.25022" lon="-120.38037">
<ele>1254.8</ele>
<time>2026-04-22T09:52:35-07:00</time>
</trkpt>
<trkpt lat="38.25022" lon="-120.38061">
<ele>1253.7</ele>
<time>2026-04-22T09:52:36-07:00</time>
</trkpt>
<trkpt lat="38.25019" lon="-120.38078">
<ele>1252.9</ele>
<time>2026-04-22T09:52:37-07:00</time>
</trkpt>
<trkpt lat="38.25012" lon="-120.38097">
<ele>1251.8</ele>
<time>2026-04-22T09:52:38-07:00</time>
</trkpt>
<trkpt lat="38.25006" lon="-120.38106">
<ele>1250.7</ele>
<time>2026-04-22T09:52:39-07:00</time>
</trkpt>
<trkpt lat="38.24995" lon="-120.38117">
<ele>1250.3</ele>
<time>2026-04-22T09:52:40-07:00</time>
</trkpt>
<trkpt lat="38.2498" lon="-120.3814">
<ele>1247.4</ele>
<time>2026-04-22T09:52:41-07:00</time>
</trkpt>
<trkpt lat="38.24964" lon="-120.38157">
<ele>1246.5</ele>
<time>2026-04-22T09:52:42-07:00</time>
</trkpt>
<trkpt lat="38.24947" lon="-120.38163">
<ele>1246.9</ele>
<time>2026-04-22T09:52:43-07:00</time>
</trkpt>
<trkpt lat="38.24936" lon="-120.38172">
<ele>1245.6</ele>
<time>2026-04-22T09:52:44-07:00</time>
</trkpt>
<trkpt lat="38.24921" lon="-120.38188">
<ele>1242.1</ele>
<time>2026-04-22T09:52:45-07:00</time>
</trkpt>
<trkpt lat="38.24913" lon="-120.38193">
<ele>1242.7</ele>
<time>2026-04-22T09:52:46-07:00</time>
</trkpt>
<trkpt lat="38.24898" lon="-120.38195">
<ele>1242.6</ele>
<time>2026-04-22T09:52:47-07:00</time>
</trkpt>
<trkpt lat="38.24886" lon="-120.38202">
<ele>1242.8</ele>
<time>2026-04-22T09:52:48-07:00</time>
</trkpt>
<trkpt lat="38.24868" lon="-120.38208">
<ele>1242.4</ele>
<time>2026-04-22T09:52:49-07:00</time>
</trkpt>
<trkpt lat="38.24862" lon="-120.38206">
<ele>1242.4</ele>
<time>2026-04-22T09:52:50-07:00</time>
</trkpt>
<trkpt lat="38.24857" lon="-120.38208">
<ele>1242.4</ele>
<time>2026-04-22T09:52:51-07:00</time>
</trkpt>
<trkpt lat="38.24848" lon="-120.38207">
<ele>1242.7</ele>
<time>2026-04-22T09:52:52-07:00</time>
</trkpt>
<trkpt lat="38.2483" lon="-120.38217">
<ele>1242.5</ele>
<time>2026-04-22T09:52:53-07:00</time>
</trkpt>
<trkpt lat="38.24822" lon="-120.38219">
<ele>1242.7</ele>
<time>2026-04-22T09:52:54-07:00</time>
</trkpt>
<trkpt lat="38.24806" lon="-120.38217">
<ele>1243</ele>
<time>2026-04-22T09:52:55-07:00</time>
</trkpt>
<trkpt lat="38.24799" lon="-120.38226">
<ele>1243.3</ele>
<time>2026-04-22T09:52:56-07:00</time>
</trkpt>
<trkpt lat="38.24775" lon="-120.38219">
<ele>1243.5</ele>
<time>2026-04-22T09:52:57-07:00</time>
</trkpt>
<trkpt lat="38.24767" lon="-120.38224">
<ele>1243.6</ele>
<time>2026-04-22T09:52:58-07:00</time>
</trkpt>
<trkpt lat="38.24769" lon="-120.38223">
<ele>1244.1</ele>
<time>2026-04-22T09:52:59-07:00</time>
</trkpt>
<trkpt lat="38.24766" lon="-120.382">
<ele>1242.4</ele>
<time>2026-04-22T09:53:00-07:00</time>
</trkpt>
<trkpt lat="38.24763" lon="-120.38196">
<ele>1242.4</ele>
<time>2026-04-22T09:53:01-07:00</time>
</trkpt>
<trkpt lat="38.24763" lon="-120.38198">
<ele>1242.4</ele>
<time>2026-04-22T09:53:02-07:00</time>
</trkpt>
<trkpt lat="38.24745" lon="-120.38195">
<ele>1240.8</ele>
<time>2026-04-22T09:53:03-07:00</time>
</trkpt>
<trkpt lat="38.24728" lon="-120.38208">
<ele>1238.9</ele>
<time>2026-04-22T09:53:04-07:00</time>
</trkpt>
<trkpt lat="38.24709" lon="-120.38202">
<ele>1236.1</ele>
<time>2026-04-22T09:53:05-07:00</time>
</trkpt>
<trkpt lat="38.24674" lon="-120.38202">
<ele>1233.5</ele>
<time>2026-04-22T09:53:06-07:00</time>
</trkpt>
<trkpt lat="38.24669" lon="-120.38205">
<ele>1234.3</ele>
<time>2026-04-22T09:53:07-07:00</time>
</trkpt>
<trkpt lat="38.24651" lon="-120.38208">
<ele>1234.5</ele>
<time>2026-04-22T09:53:08-07:00</time>
</trkpt>
<trkpt lat="38.24647" lon="-120.38213">
<ele>1235</ele>
<time>2026-04-22T09:53:09-07:00</time>
</trkpt>
<trkpt lat="38.24631" lon="-120.38224">
<ele>1235.8</ele>
<time>2026-04-22T09:53:10-07:00</time>
</trkpt>
<trkpt lat="38.24618" lon="-120.38237">
<ele>1236.4</ele>
<time>2026-04-22T09:53:11-07:00</time>
</trkpt>
<trkpt lat="38.24586" lon="-120.38225">
<ele>1235.7</ele>
<time>2026-04-22T09:53:12-07:00</time>
</trkpt>
<trkpt lat="38.24551" lon="-120.38201">
<ele>1235.3</ele>
<time>2026-04-22T09:53:13-07:00</time>
</trkpt>
<trkpt lat="38.24517" lon="-120.38185">
<ele>1237</ele>
<time>2026-04-22T09:53:14-07:00</time>
</trkpt>
<trkpt lat="38.24495" lon="-120.38172">
<ele>1237.3</ele>
<time>2026-04-22T09:53:15-07:00</time>
</trkpt>
<trkpt lat="38.24484" lon="-120.38169">
<ele>1237.9</ele>
<time>2026-04-22T09:53:16-07:00</time>
</trkpt>
<trkpt lat="38.24463" lon="-120.3817">
<ele>1239.1</ele>
<time>2026-04-22T09:53:17-07:00</time>
</trkpt>
<trkpt lat="38.24436" lon="-120.38151">
<ele>1237.5</ele>
<time>2026-04-22T09:53:18-07:00</time>
</trkpt>
<trkpt lat="38.24427" lon="-120.38146">
<ele>1236.5</ele>
<time>2026-04-22T09:53:19-07:00</time>
</trkpt>
<trkpt lat="38.24416" lon="-120.38143">
<ele>1237.2</ele>
<time>2026-04-22T09:53:20-07:00</time>
</trkpt>
<trkpt lat="38.24405" lon="-120.38141">
<ele>1237.5</ele>
<time>2026-04-22T09:53:21-07:00</time>
</trkpt>
<trkpt lat="38.24382" lon="-120.38142">
<ele>1238.4</ele>
<time>2026-04-22T09:53:22-07:00</time>
</trkpt>
<trkpt lat="38.24372" lon="-120.38147">
<ele>1238.8</ele>
<time>2026-04-22T09:53:23-07:00</time>
</trkpt>
<trkpt lat="38.24358" lon="-120.38139">
<ele>1239.6</ele>
<time>2026-04-22T09:53:24-07:00</time>
</trkpt>
<trkpt lat="38.24337" lon="-120.38147">
<ele>1240.3</ele>
<time>2026-04-22T09:53:25-07:00</time>
</trkpt>
<trkpt lat="38.24311" lon="-120.38141">
<ele>1241.1</ele>
<time>2026-04-22T09:53:26-07:00</time>
</trkpt>
<trkpt lat="38.24261" lon="-120.3814">
<ele>1241.8</ele>
<time>2026-04-22T09:53:27-07:00</time>
</trkpt>
<trkpt lat="38.24217" lon="-120.38148">
<ele>1240.7</ele>
<time>2026-04-22T09:53:28-07:00</time>
</trkpt>
<trkpt lat="38.2421" lon="-120.38151">
<ele>1239.7</ele>
<time>2026-04-22T09:53:29-07:00</time>
</trkpt>
<trkpt lat="38.24207" lon="-120.3816">
<ele>1239.4</ele>
<time>2026-04-22T09:53:30-07:00</time>
</trkpt>
<trkpt lat="38.24217" lon="-120.38185">
<ele>1238</ele>
<time>2026-04-22T09:53:31-07:00</time>
</trkpt>
<trkpt lat="38.24207" lon="-120.38217">
<ele>1236.1</ele>
<time>2026-04-22T09:53:32-07:00</time>
</trkpt>
<trkpt lat="38.24205" lon="-120.38255">
<ele>1234.4</ele>
<time>2026-04-22T09:53:33-07:00</time>
</trkpt>
<trkpt lat="38.24195" lon="-120.38261">
<ele>1234.8</ele>
<time>2026-04-22T09:53:34-07:00</time>
</trkpt>
<trkpt lat="38.24192" lon="-120.38265">
<ele>1234.2</ele>
<time>2026-04-22T09:53:35-07:00</time>
</trkpt>
<trkpt lat="38.24172" lon="-120.38277">
<ele>1233.5</ele>
<time>2026-04-22T09:53:36-07:00</time>
</trkpt>
<trkpt lat="38.24157" lon="-120.38282">
<ele>1232.4</ele>
<time>2026-04-22T09:53:37-07:00</time>
</trkpt>
<trkpt lat="38.24154" lon="-120.38287">
<ele>1232.4</ele>
<time>2026-04-22T09:53:38-07:00</time>
</trkpt>
<trkpt lat="38.24136" lon="-120.38302">
<ele>1233.4</ele>
<time>2026-04-22T09:53:39-07:00</time>
</trkpt>
<trkpt lat="38.24133" lon="-120.38319">
<ele>1233.9</ele>
<time>2026-04-22T09:53:40-07:00</time>
</trkpt>
<trkpt lat="38.2412" lon="-120.38323">
<ele>1229.8</ele>
<time>2026-04-22T09:53:41-07:00</time>
</trkpt>
<trkpt lat="38.24109" lon="-120.38316">
<ele>1231.2</ele>
<time>2026-04-22T09:53:42-07:00</time>
</trkpt>
<trkpt lat="38.24093" lon="-120.38316">
<ele>1231.4</ele>
<time>2026-04-22T09:53:43-07:00</time>
</trkpt>
<trkpt lat="38.24082" lon="-120.38313">
<ele>1229.6</ele>
<time>2026-04-22T09:53:44-07:00</time>
</trkpt>
<trkpt lat="38.24058" lon="-120.38354">
<ele>1229.4</ele>
<time>2026-04-22T09:53:45-07:00</time>
</trkpt>
<trkpt lat="38.24054" lon="-120.38378">
<ele>1228.9</ele>
<time>2026-04-22T09:53:46-07:00</time>
</trkpt>
<trkpt lat="38.24029" lon="-120.38398">
<ele>1231.7</ele>
<time>2026-04-22T09:53:47-07:00</time>
</trkpt>
<trkpt lat="38.24017" lon="-120.38398">
<ele>1230.9</ele>
<time>2026-04-22T09:53:48-07:00</time>
</trkpt>
<trkpt lat="38.24008" lon="-120.38392">
<ele>1232.3</ele>
<time>2026-04-22T09:53:49-07:00</time>
</trkpt>
<trkpt lat="38.24001" lon="-120.38381">
<ele>1230.7</ele>
<time>2026-04-22T09:53:50-07:00</time>
</trkpt>
<trkpt lat="38.23988" lon="-120.38378">
<ele>1231.7</ele>
<time>2026-04-22T09:53:51-07:00</time>
</trkpt>
<trkpt lat="38.2396" lon="-120.38365">
<ele>1234</ele>
<time>2026-04-22T09:53:52-07:00</time>
</trkpt>
<trkpt lat="38.23898" lon="-120.38371">
<ele>1238</ele>
<time>2026-04-22T09:53:53-07:00</time>
</trkpt>
<trkpt lat="38.23874" lon="-120.38368">
<ele>1236.8</ele>
<time>2026-04-22T09:53:54-07:00</time>
</trkpt>
<trkpt lat="38.23841" lon="-120.38373">
<ele>1238.6</ele>
<time>2026-04-22T09:53:55-07:00</time>
</trkpt>
<trkpt lat="38.23822" lon="-120.38372">
<ele>1237.9</ele>
<time>2026-04-22T09:53:56-07:00</time>
</trkpt>
<trkpt lat="38.23804" lon="-120.38379">
<ele>1237.8</ele>
<time>2026-04-22T09:53:57-07:00</time>
</trkpt>
<trkpt lat="38.23782" lon="-120.38392">
<ele>1239.6</ele>
<time>2026-04-22T09:53:58-07:00</time>
</trkpt>
<trkpt lat="38.23786" lon="-120.38409">
<ele>1241.4</ele>
<time>2026-04-22T09:53:59-07:00</time>
</trkpt>
<trkpt lat="38.23733" lon="-120.38551">
<ele>1246.6</ele>
<time>2026-04-22T09:54:00-07:00</time>
</trkpt>
<trkpt lat="38.23704" lon="-120.38592">
<ele>1241.3</ele>
<time>2026-04-22T09:54:01-07:00</time>
</trkpt>
<trkpt lat="38.23681" lon="-120.3864">
<ele>1243.3</ele>
<time>2026-04-22T09:54:02-07:00</time>
</trkpt>
<trkpt lat="38.23637" lon="-120.38695">
<ele>1240.9</ele>
<time>2026-04-22T09:54:03-07:00</time>
</trkpt>
<trkpt lat="38.23624" lon="-120.38707">
<ele>1240.1</ele>
<time>2026-04-22T09:54:04-07:00</time>
</trkpt>
<trkpt lat="38.23607" lon="-120.38715">
<ele>1236</ele>
<time>2026-04-22T09:54:05-07:00</time>
</trkpt>
<trkpt lat="38.2359" lon="-120.38717">
<ele>1232.5</ele>
<time>2026-04-22T09:54:06-07:00</time>
</trkpt>
<trkpt lat="38.23581" lon="-120.38721">
<ele>1231.4</ele>
<time>2026-04-22T09:54:07-07:00</time>
</trkpt>
<trkpt lat="38.23571" lon="-120.38727">
<ele>1229.7</ele>
<time>2026-04-22T09:54:08-07:00</time>
</trkpt>
<trkpt lat="38.23559" lon="-120.38735">
<ele>1229.4</ele>
<time>2026-04-22T09:54:09-07:00</time>
</trkpt>
<trkpt lat="38.23543" lon="-120.38742">
<ele>1230.7</ele>
<time>2026-04-22T09:54:10-07:00</time>
</trkpt>
<trkpt lat="38.2353" lon="-120.38756">
<ele>1232.3</ele>
<time>2026-04-22T09:54:11-07:00</time>
</trkpt>
<trkpt lat="38.2352" lon="-120.38773">
<ele>1234.6</ele>
<time>2026-04-22T09:54:12-07:00</time>
</trkpt>
<trkpt lat="38.23513" lon="-120.38785">
<ele>1235.8</ele>
<time>2026-04-22T09:54:13-07:00</time>
</trkpt>
<trkpt lat="38.23504" lon="-120.38807">
<ele>1239.1</ele>
<time>2026-04-22T09:54:14-07:00</time>
</trkpt>
<trkpt lat="38.235" lon="-120.38824">
<ele>1239.7</ele>
<time>2026-04-22T09:54:15-07:00</time>
</trkpt>
<trkpt lat="38.23498" lon="-120.38839">
<ele>1242.8</ele>
<time>2026-04-22T09:54:16-07:00</time>
</trkpt>
<trkpt lat="38.23495" lon="-120.3885">
<ele>1243.8</ele>
<time>2026-04-22T09:54:17-07:00</time>
</trkpt>
<trkpt lat="38.23496" lon="-120.3886">
<ele>1245.3</ele>
<time>2026-04-22T09:54:18-07:00</time>
</trkpt>
<trkpt lat="38.23492" lon="-120.38866">
<ele>1246.6</ele>
<time>2026-04-22T09:54:19-07:00</time>
</trkpt>
<trkpt lat="38.2349" lon="-120.38881">
<ele>1248.2</ele>
<time>2026-04-22T09:54:20-07:00</time>
</trkpt>
<trkpt lat="38.23484" lon="-120.38875">
<ele>1247.5</ele>
<time>2026-04-22T09:54:21-07:00</time>
</trkpt>
<trkpt lat="38.23466" lon="-120.3887">
<ele>1250.7</ele>
<time>2026-04-22T09:54:22-07:00</time>
</trkpt>
<trkpt lat="38.23311" lon="-120.38778">
<ele>1256.7</ele>
<time>2026-04-22T09:54:23-07:00</time>
</trkpt>
<trkpt lat="38.23302" lon="-120.38767">
<ele>1257.4</ele>
<time>2026-04-22T09:54:24-07:00</time>
</trkpt>
<trkpt lat="38.23294" lon="-120.38762">
<ele>1258.2</ele>
<time>2026-04-22T09:54:25-07:00</time>
</trkpt>
<trkpt lat="38.23288" lon="-120.38763">
<ele>1258.2</ele>
<time>2026-04-22T09:54:26-07:00</time>
</trkpt>
<trkpt lat="38.23286" lon="-120.38768">
<ele>1258</ele>
<time>2026-04-22T09:54:27-07:00</time>
</trkpt>
<trkpt lat="38.23288" lon="-120.38787">
<ele>1258.8</ele>
<time>2026-04-22T09:54:28-07:00</time>
</trkpt>
<trkpt lat="38.23287" lon="-120.38805">
<ele>1256.7</ele>
<time>2026-04-22T09:54:29-07:00</time>
</trkpt>
<trkpt lat="38.23257" lon="-120.38832">
<ele>1255.5</ele>
<time>2026-04-22T09:54:30-07:00</time>
</trkpt>
<trkpt lat="38.23248" lon="-120.38837">
<ele>1257.6</ele>
<time>2026-04-22T09:54:31-07:00</time>
</trkpt>
<trkpt lat="38.23234" lon="-120.38838">
<ele>1258.3</ele>
<time>2026-04-22T09:54:32-07:00</time>
</trkpt>
<trkpt lat="38.23222" lon="-120.38833">
<ele>1259.1</ele>
<time>2026-04-22T09:54:33-07:00</time>
</trkpt>
<trkpt lat="38.23171" lon="-120.38797">
<ele>1261.5</ele>
<time>2026-04-22T09:54:34-07:00</time>
</trkpt>
<trkpt lat="38.23152" lon="-120.38786">
<ele>1258.7</ele>
<time>2026-04-22T09:54:35-07:00</time>
</trkpt>
<trkpt lat="38.23138" lon="-120.38772">
<ele>1260.2</ele>
<time>2026-04-22T09:54:36-07:00</time>
</trkpt>
<trkpt lat="38.23126" lon="-120.38763">
<ele>1258</ele>
<time>2026-04-22T09:54:37-07:00</time>
</trkpt>
<trkpt lat="38.23098" lon="-120.3875">
<ele>1257.1</ele>
<time>2026-04-22T09:54:38-07:00</time>
</trkpt>
<trkpt lat="38.23079" lon="-120.38734">
<ele>1256.6</ele>
<time>2026-04-22T09:54:39-07:00</time>
</trkpt>
<trkpt lat="38.23064" lon="-120.38731">
<ele>1255.2</ele>
<time>2026-04-22T09:54:40-07:00</time>
</trkpt>
<trkpt lat="38.23087" lon="-120.38757">
<ele>1262.6</ele>
<time>2026-04-22T09:54:41-07:00</time>
</trkpt>
<trkpt lat="38.231" lon="-120.38773">
<ele>1267.1</ele>
<time>2026-04-22T09:54:42-07:00</time>
</trkpt>
<trkpt lat="38.23169" lon="-120.38869">
<ele>1281.4</ele>
<time>2026-04-22T09:54:43-07:00</time>
</trkpt>
<trkpt lat="38.23204" lon="-120.38891">
<ele>1278.3</ele>
<time>2026-04-22T09:54:44-07:00</time>
</trkpt>
<trkpt lat="38.23214" lon="-120.38912">
<ele>1278.6</ele>
<time>2026-04-22T09:54:45-07:00</time>
</trkpt>
<trkpt lat="38.23221" lon="-120.38928">
<ele>1279.1</ele>
<time>2026-04-22T09:54:46-07:00</time>
</trkpt>
<trkpt lat="38.23236" lon="-120.38929">
<ele>1278.5</ele>
<time>2026-04-22T09:54:47-07:00</time>
</trkpt>
<trkpt lat="38.23276" lon="-120.38847">
<ele>1262.7</ele>
<time>2026-04-22T09:54:48-07:00</time>
</trkpt>
<trkpt lat="38.23287" lon="-120.38805">
<ele>1256.7</ele>
<time>2026-04-22T09:54:49-07:00</time>
</trkpt>
<trkpt lat="38.23288" lon="-120.38787">
<ele>1258.8</ele>
<time>2026-04-22T09:54:50-07:00</time>
</trkpt>
<trkpt lat="38.23286" lon="-120.38768">
<ele>1258</ele>
<time>2026-04-22T09:54:51-07:00</time>
</trkpt>
<trkpt lat="38.23288" lon="-120.38763">
<ele>1258.2</ele>
<time>2026-04-22T09:54:52-07:00</time>
</trkpt>
<trkpt lat="38.23294" lon="-120.38762">
<ele>1258.2</ele>
<time>2026-04-22T09:54:53-07:00</time>
</trkpt>
<trkpt lat="38.23302" lon="-120.38767">
<ele>1257.4</ele>
<time>2026-04-22T09:54:54-07:00</time>
</trkpt>
<trkpt lat="38.23311" lon="-120.38778">
<ele>1256.7</ele>
<time>2026-04-22T09:54:55-07:00</time>
</trkpt>
<trkpt lat="38.23308" lon="-120.38775">
<ele>1256.6</ele>
<time>2026-04-22T09:54:56-07:00</time>
</trkpt>
<trkpt lat="38.23331" lon="-120.38796">
<ele>1252.9</ele>
<time>2026-04-22T09:54:57-07:00</time>
</trkpt>
<trkpt lat="38.23389" lon="-120.38832">
<ele>1254.1</ele>
<time>2026-04-22T09:54:58-07:00</time>
</trkpt>
<trkpt lat="38.23431" lon="-120.38855">
<ele>1255.7</ele>
<time>2026-04-22T09:54:59-07:00</time>
</trkpt>
<trkpt lat="38.23464" lon="-120.38864">
<ele>1250.7</ele>
<time>2026-04-22T09:55:00-07:00</time>
</trkpt>
<trkpt lat="38.23476" lon="-120.38871">
<ele>1249.8</ele>
<time>2026-04-22T09:55:01-07:00</time>
</trkpt>
<trkpt lat="38.23478" lon="-120.38875">
<ele>1249.8</ele>
<time>2026-04-22T09:55:02-07:00</time>
</trkpt>
<trkpt lat="38.23485" lon="-120.38878">
<ele>1247.5</ele>
<time>2026-04-22T09:55:03-07:00</time>
</trkpt>
<trkpt lat="38.23491" lon="-120.38883">
<ele>1246.9</ele>
<time>2026-04-22T09:55:04-07:00</time>
</trkpt>
<trkpt lat="38.23484" lon="-120.38875">
<ele>1247.5</ele>
<time>2026-04-22T09:55:05-07:00</time>
</trkpt>
<trkpt lat="38.2349" lon="-120.38881">
<ele>1248.2</ele>
<time>2026-04-22T09:55:06-07:00</time>
</trkpt>
<trkpt lat="38.23508" lon="-120.38874">
<ele>1245.8</ele>
<time>2026-04-22T09:55:07-07:00</time>
</trkpt>
<trkpt lat="38.23522" lon="-120.38868">
<ele>1243.8</ele>
<time>2026-04-22T09:55:08-07:00</time>
</trkpt>
<trkpt lat="38.23525" lon="-120.38862">
<ele>1243.8</ele>
<time>2026-04-22T09:55:09-07:00</time>
</trkpt>
<trkpt lat="38.23525" lon="-120.38854">
<ele>1242.4</ele>
<time>2026-04-22T09:55:10-07:00</time>
</trkpt>
<trkpt lat="38.2352" lon="-120.38848">
<ele>1240.7</ele>
<time>2026-04-22T09:55:11-07:00</time>
</trkpt>
<trkpt lat="38.23521" lon="-120.38833">
<ele>1237.1</ele>
<time>2026-04-22T09:55:12-07:00</time>
</trkpt>
<trkpt lat="38.23526" lon="-120.38818">
<ele>1235.3</ele>
<time>2026-04-22T09:55:13-07:00</time>
</trkpt>
<trkpt lat="38.23535" lon="-120.38794">
<ele>1232.6</ele>
<time>2026-04-22T09:55:14-07:00</time>
</trkpt>
<trkpt lat="38.23559" lon="-120.38757">
<ele>1229</ele>
<time>2026-04-22T09:55:15-07:00</time>
</trkpt>
<trkpt lat="38.23574" lon="-120.38737">
<ele>1229.4</ele>
<time>2026-04-22T09:55:16-07:00</time>
</trkpt>
<trkpt lat="38.23606" lon="-120.38733">
<ele>1232.9</ele>
<time>2026-04-22T09:55:17-07:00</time>
</trkpt>
<trkpt lat="38.23652" lon="-120.38742">
<ele>1237.3</ele>
<time>2026-04-22T09:55:18-07:00</time>
</trkpt>
<trkpt lat="38.23663" lon="-120.38742">
<ele>1239</ele>
<time>2026-04-22T09:55:19-07:00</time>
</trkpt>
<trkpt lat="38.23675" lon="-120.38739">
<ele>1242.2</ele>
<time>2026-04-22T09:55:20-07:00</time>
</trkpt>
<trkpt lat="38.23692" lon="-120.38702">
<ele>1244.8</ele>
<time>2026-04-22T09:55:21-07:00</time>
</trkpt>
<trkpt lat="38.23707" lon="-120.3869">
<ele>1244.5</ele>
<time>2026-04-22T09:55:22-07:00</time>
</trkpt>
<trkpt lat="38.23713" lon="-120.38683">
<ele>1244.9</ele>
<time>2026-04-22T09:55:23-07:00</time>
</trkpt>
<trkpt lat="38.23717" lon="-120.38675">
<ele>1246</ele>
<time>2026-04-22T09:55:24-07:00</time>
</trkpt>
<trkpt lat="38.23751" lon="-120.38656">
<ele>1251.6</ele>
<time>2026-04-22T09:55:25-07:00</time>
</trkpt>
<trkpt lat="38.23754" lon="-120.3865">
<ele>1251.6</ele>
<time>2026-04-22T09:55:26-07:00</time>
</trkpt>
<trkpt lat="38.23758" lon="-120.38634">
<ele>1252.5</ele>
<time>2026-04-22T09:55:27-07:00</time>
</trkpt>
<trkpt lat="38.23769" lon="-120.38629">
<ele>1256.3</ele>
<time>2026-04-22T09:55:28-07:00</time>
</trkpt>
<trkpt lat="38.23776" lon="-120.3862">
<ele>1256.2</ele>
<time>2026-04-22T09:55:29-07:00</time>
</trkpt>
<trkpt lat="38.23792" lon="-120.38609">
<ele>1260.2</ele>
<time>2026-04-22T09:55:30-07:00</time>
</trkpt>
<trkpt lat="38.23816" lon="-120.38578">
<ele>1262.8</ele>
<time>2026-04-22T09:55:31-07:00</time>
</trkpt>
<trkpt lat="38.23821" lon="-120.38575">
<ele>1262.8</ele>
<time>2026-04-22T09:55:32-07:00</time>
</trkpt>
<trkpt lat="38.23825" lon="-120.38576">
<ele>1264.4</ele>
<time>2026-04-22T09:55:33-07:00</time>
</trkpt>
<trkpt lat="38.23828" lon="-120.3858">
<ele>1264.4</ele>
<time>2026-04-22T09:55:34-07:00</time>
</trkpt>
<trkpt lat="38.23828" lon="-120.38587">
<ele>1265.5</ele>
<time>2026-04-22T09:55:35-07:00</time>
</trkpt>
<trkpt lat="38.23818" lon="-120.38623">
<ele>1268.1</ele>
<time>2026-04-22T09:55:36-07:00</time>
</trkpt>
<trkpt lat="38.23819" lon="-120.3863">
<ele>1268.7</ele>
<time>2026-04-22T09:55:37-07:00</time>
</trkpt>
<trkpt lat="38.23821" lon="-120.38632">
<ele>1268.7</ele>
<time>2026-04-22T09:55:38-07:00</time>
</trkpt>
<trkpt lat="38.23825" lon="-120.3863">
<ele>1271</ele>
<time>2026-04-22T09:55:39-07:00</time>
</trkpt>
<trkpt lat="38.23848" lon="-120.38608">
<ele>1271.7</ele>
<time>2026-04-22T09:55:40-07:00</time>
</trkpt>
<trkpt lat="38.23856" lon="-120.38603">
<ele>1273.3</ele>
<time>2026-04-22T09:55:41-07:00</time>
</trkpt>
<trkpt lat="38.23859" lon="-120.38607">
<ele>1273.3</ele>
<time>2026-04-22T09:55:42-07:00</time>
</trkpt>
<trkpt lat="38.23859" lon="-120.38617">
<ele>1274.9</ele>
<time>2026-04-22T09:55:43-07:00</time>
</trkpt>
<trkpt lat="38.23856" lon="-120.3863">
<ele>1277.7</ele>
<time>2026-04-22T09:55:44-07:00</time>
</trkpt>
<trkpt lat="38.23856" lon="-120.38645">
<ele>1279.1</ele>
<time>2026-04-22T09:55:45-07:00</time>
</trkpt>
<trkpt lat="38.23852" lon="-120.3866">
<ele>1281.2</ele>
<time>2026-04-22T09:55:46-07:00</time>
</trkpt>
<trkpt lat="38.23854" lon="-120.38667">
<ele>1282.2</ele>
<time>2026-04-22T09:55:47-07:00</time>
</trkpt>
<trkpt lat="38.2386" lon="-120.38673">
<ele>1282.2</ele>
<time>2026-04-22T09:55:48-07:00</time>
</trkpt>
<trkpt lat="38.23874" lon="-120.38665">
<ele>1286.7</ele>
<time>2026-04-22T09:55:49-07:00</time>
</trkpt>
<trkpt lat="38.23895" lon="-120.38646">
<ele>1288.5</ele>
<time>2026-04-22T09:55:50-07:00</time>
</trkpt>
<trkpt lat="38.23907" lon="-120.38639">
<ele>1291.1</ele>
<time>2026-04-22T09:55:51-07:00</time>
</trkpt>
<trkpt lat="38.2391" lon="-120.38639">
<ele>1293.1</ele>
<time>2026-04-22T09:55:52-07:00</time>
</trkpt>
<trkpt lat="38.23912" lon="-120.38643">
<ele>1293.1</ele>
<time>2026-04-22T09:55:53-07:00</time>
</trkpt>
<trkpt lat="38.23904" lon="-120.38659">
<ele>1295.3</ele>
<time>2026-04-22T09:55:54-07:00</time>
</trkpt>
<trkpt lat="38.23898" lon="-120.38685">
<ele>1296.5</ele>
<time>2026-04-22T09:55:55-07:00</time>
</trkpt>
<trkpt lat="38.23898" lon="-120.38707">
<ele>1300.6</ele>
<time>2026-04-22T09:55:56-07:00</time>
</trkpt>
<trkpt lat="38.23901" lon="-120.38712">
<ele>1303.8</ele>
<time>2026-04-22T09:55:57-07:00</time>
</trkpt>
<trkpt lat="38.23904" lon="-120.38709">
<ele>1303.8</ele>
<time>2026-04-22T09:55:58-07:00</time>
</trkpt>
<trkpt lat="38.23917" lon="-120.38681">
<ele>1304.6</ele>
<time>2026-04-22T09:55:59-07:00</time>
</trkpt>
<trkpt lat="38.23923" lon="-120.38678">
<ele>1304.6</ele>
<time>2026-04-22T09:56:00-07:00</time>
</trkpt>
<trkpt lat="38.23928" lon="-120.38676">
<ele>1307</ele>
<time>2026-04-22T09:56:01-07:00</time>
</trkpt>
<trkpt lat="38.23937" lon="-120.38677">
<ele>1309.1</ele>
<time>2026-04-22T09:56:02-07:00</time>
</trkpt>
<trkpt lat="38.23957" lon="-120.38686">
<ele>1314.8</ele>
<time>2026-04-22T09:56:03-07:00</time>
</trkpt>
<trkpt lat="38.23966" lon="-120.38692">
<ele>1315.8</ele>
<time>2026-04-22T09:56:04-07:00</time>
</trkpt>
<trkpt lat="38.23973" lon="-120.387">
<ele>1318.8</ele>
<time>2026-04-22T09:56:05-07:00</time>
</trkpt>
<trkpt lat="38.23973" lon="-120.38709">
<ele>1321</ele>
<time>2026-04-22T09:56:06-07:00</time>
</trkpt>
<trkpt lat="38.23964" lon="-120.38718">
<ele>1322.4</ele>
<time>2026-04-22T09:56:07-07:00</time>
</trkpt>
<trkpt lat="38.23961" lon="-120.38728">
<ele>1322.9</ele>
<time>2026-04-22T09:56:08-07:00</time>
</trkpt>
<trkpt lat="38.23962" lon="-120.38738">
<ele>1324.6</ele>
<time>2026-04-22T09:56:09-07:00</time>
</trkpt>
<trkpt lat="38.23966" lon="-120.38742">
<ele>1327.5</ele>
<time>2026-04-22T09:56:10-07:00</time>
</trkpt>
<trkpt lat="38.23981" lon="-120.38744">
<ele>1328.8</ele>
<time>2026-04-22T09:56:11-07:00</time>
</trkpt>
<trkpt lat="38.23993" lon="-120.38742">
<ele>1328</ele>
<time>2026-04-22T09:56:12-07:00</time>
</trkpt>
<trkpt lat="38.24013" lon="-120.3875">
<ele>1326.3</ele>
<time>2026-04-22T09:56:13-07:00</time>
</trkpt>
<trkpt lat="38.24057" lon="-120.38756">
<ele>1324.7</ele>
<time>2026-04-22T09:56:14-07:00</time>
</trkpt>
<trkpt lat="38.24063" lon="-120.38755">
<ele>1324.7</ele>
<time>2026-04-22T09:56:15-07:00</time>
</trkpt>
<trkpt lat="38.24077" lon="-120.38745">
<ele>1321.7</ele>
<time>2026-04-22T09:56:16-07:00</time>
</trkpt>
<trkpt lat="38.2409" lon="-120.3874">
<ele>1319.9</ele>
<time>2026-04-22T09:56:17-07:00</time>
</trkpt>
<trkpt lat="38.24107" lon="-120.38742">
<ele>1317.8</ele>
<time>2026-04-22T09:56:18-07:00</time>
</trkpt>
<trkpt lat="38.2414" lon="-120.38731">
<ele>1317.5</ele>
<time>2026-04-22T09:56:19-07:00</time>
</trkpt>
<trkpt lat="38.24158" lon="-120.38731">
<ele>1318.2</ele>
<time>2026-04-22T09:56:20-07:00</time>
</trkpt>
<trkpt lat="38.24181" lon="-120.38733">
<ele>1318.8</ele>
<time>2026-04-22T09:56:21-07:00</time>
</trkpt>
<trkpt lat="38.2423" lon="-120.38742">
<ele>1321</ele>
<time>2026-04-22T09:56:22-07:00</time>
</trkpt>
<trkpt lat="38.24255" lon="-120.38745">
<ele>1325.5</ele>
<time>2026-04-22T09:56:23-07:00</time>
</trkpt>
<trkpt lat="38.24308" lon="-120.38748">
<ele>1334.4</ele>
<time>2026-04-22T09:56:24-07:00</time>
</trkpt>
<trkpt lat="38.24331" lon="-120.38736">
<ele>1334</ele>
<time>2026-04-22T09:56:25-07:00</time>
</trkpt>
<trkpt lat="38.24351" lon="-120.3872">
<ele>1330.9</ele>
<time>2026-04-22T09:56:26-07:00</time>
</trkpt>
<trkpt lat="38.24382" lon="-120.38727">
<ele>1332.1</ele>
<time>2026-04-22T09:56:27-07:00</time>
</trkpt>
<trkpt lat="38.24393" lon="-120.38734">
<ele>1332.5</ele>
<time>2026-04-22T09:56:28-07:00</time>
</trkpt>
<trkpt lat="38.24411" lon="-120.3875">
<ele>1334</ele>
<time>2026-04-22T09:56:29-07:00</time>
</trkpt>
<trkpt lat="38.24416" lon="-120.38752">
<ele>1333.6</ele>
<time>2026-04-22T09:56:30-07:00</time>
</trkpt>
<trkpt lat="38.24425" lon="-120.38751">
<ele>1335</ele>
<time>2026-04-22T09:56:31-07:00</time>
</trkpt>
<trkpt lat="38.24436" lon="-120.38747">
<ele>1339.7</ele>
<time>2026-04-22T09:56:32-07:00</time>
</trkpt>
<trkpt lat="38.24441" lon="-120.38749">
<ele>1339.7</ele>
<time>2026-04-22T09:56:33-07:00</time>
</trkpt>
<trkpt lat="38.24456" lon="-120.38765">
<ele>1343.9</ele>
<time>2026-04-22T09:56:34-07:00</time>
</trkpt>
<trkpt lat="38.24466" lon="-120.38766">
<ele>1345.9</ele>
<time>2026-04-22T09:56:35-07:00</time>
</trkpt>
<trkpt lat="38.24472" lon="-120.38763">
<ele>1345.9</ele>
<time>2026-04-22T09:56:36-07:00</time>
</trkpt>
<trkpt lat="38.24481" lon="-120.38763">
<ele>1347.2</ele>
<time>2026-04-22T09:56:37-07:00</time>
</trkpt>
<trkpt lat="38.24489" lon="-120.38768">
<ele>1348.5</ele>
<time>2026-04-22T09:56:38-07:00</time>
</trkpt>
<trkpt lat="38.24496" lon="-120.3877">
<ele>1348.9</ele>
<time>2026-04-22T09:56:39-07:00</time>
</trkpt>
<trkpt lat="38.24504" lon="-120.3877">
<ele>1351.3</ele>
<time>2026-04-22T09:56:40-07:00</time>
</trkpt>
<trkpt lat="38.24528" lon="-120.38775">
<ele>1354.1</ele>
<time>2026-04-22T09:56:41-07:00</time>
</trkpt>
<trkpt lat="38.24537" lon="-120.38781">
<ele>1355.8</ele>
<time>2026-04-22T09:56:42-07:00</time>
</trkpt>
<trkpt lat="38.24553" lon="-120.38797">
<ele>1358.5</ele>
<time>2026-04-22T09:56:43-07:00</time>
</trkpt>
<trkpt lat="38.24563" lon="-120.38803">
<ele>1359.8</ele>
<time>2026-04-22T09:56:44-07:00</time>
</trkpt>
<trkpt lat="38.24575" lon="-120.38801">
<ele>1360.7</ele>
<time>2026-04-22T09:56:45-07:00</time>
</trkpt>
<trkpt lat="38.24602" lon="-120.38808">
<ele>1359.3</ele>
<time>2026-04-22T09:56:46-07:00</time>
</trkpt>
<trkpt lat="38.24613" lon="-120.388">
<ele>1356.8</ele>
<time>2026-04-22T09:56:47-07:00</time>
</trkpt>
<trkpt lat="38.24619" lon="-120.38789">
<ele>1355.4</ele>
<time>2026-04-22T09:56:48-07:00</time>
</trkpt>
<trkpt lat="38.24622" lon="-120.38787">
<ele>1352.4</ele>
<time>2026-04-22T09:56:49-07:00</time>
</trkpt>
<trkpt lat="38.24629" lon="-120.38789">
<ele>1353.6</ele>
<time>2026-04-22T09:56:50-07:00</time>
</trkpt>
<trkpt lat="38.24635" lon="-120.38795">
<ele>1351.5</ele>
<time>2026-04-22T09:56:51-07:00</time>
</trkpt>
<trkpt lat="38.2464" lon="-120.38815">
<ele>1346.1</ele>
<time>2026-04-22T09:56:52-07:00</time>
</trkpt>
<trkpt lat="38.24644" lon="-120.38814">
<ele>1347</ele>
<time>2026-04-22T09:56:53-07:00</time>
</trkpt>
<trkpt lat="38.24649" lon="-120.38808">
<ele>1342.4</ele>
<time>2026-04-22T09:56:54-07:00</time>
</trkpt>
<trkpt lat="38.24664" lon="-120.38801">
<ele>1339.3</ele>
<time>2026-04-22T09:56:55-07:00</time>
</trkpt>
<trkpt lat="38.24696" lon="-120.38766">
<ele>1336.5</ele>
<time>2026-04-22T09:56:56-07:00</time>
</trkpt>
<trkpt lat="38.24704" lon="-120.38761">
<ele>1335.4</ele>
<time>2026-04-22T09:56:57-07:00</time>
</trkpt>
<trkpt lat="38.24711" lon="-120.38759">
<ele>1337.9</ele>
<time>2026-04-22T09:56:58-07:00</time>
</trkpt>
<trkpt lat="38.24721" lon="-120.38759">
<ele>1337.8</ele>
<time>2026-04-22T09:56:59-07:00</time>
</trkpt>
<trkpt lat="38.24743" lon="-120.3875">
<ele>1335</ele>
<time>2026-04-22T09:57:00-07:00</time>
</trkpt>
<trkpt lat="38.24762" lon="-120.38718">
<ele>1338.3</ele>
<time>2026-04-22T09:57:01-07:00</time>
</trkpt>
<trkpt lat="38.24767" lon="-120.38713">
<ele>1338.3</ele>
<time>2026-04-22T09:57:02-07:00</time>
</trkpt>
<trkpt lat="38.24774" lon="-120.38711">
<ele>1336.7</ele>
<time>2026-04-22T09:57:03-07:00</time>
</trkpt>
<trkpt lat="38.24783" lon="-120.38712">
<ele>1335.3</ele>
<time>2026-04-22T09:57:04-07:00</time>
</trkpt>
<trkpt lat="38.24799" lon="-120.3872">
<ele>1332</ele>
<time>2026-04-22T09:57:05-07:00</time>
</trkpt>
<trkpt lat="38.24809" lon="-120.38721">
<ele>1331.1</ele>
<time>2026-04-22T09:57:06-07:00</time>
</trkpt>
<trkpt lat="38.24824" lon="-120.38718">
<ele>1330.6</ele>
<time>2026-04-22T09:57:07-07:00</time>
</trkpt>
<trkpt lat="38.2483" lon="-120.38719">
<ele>1329.9</ele>
<time>2026-04-22T09:57:08-07:00</time>
</trkpt>
<trkpt lat="38.24841" lon="-120.38728">
<ele>1328.3</ele>
<time>2026-04-22T09:57:09-07:00</time>
</trkpt>
<trkpt lat="38.24862" lon="-120.38731">
<ele>1327.2</ele>
<time>2026-04-22T09:57:10-07:00</time>
</trkpt>
<trkpt lat="38.24869" lon="-120.38737">
<ele>1327.4</ele>
<time>2026-04-22T09:57:11-07:00</time>
</trkpt>
<trkpt lat="38.24891" lon="-120.38742">
<ele>1325.9</ele>
<time>2026-04-22T09:57:12-07:00</time>
</trkpt>
<trkpt lat="38.24906" lon="-120.3874">
<ele>1325.9</ele>
<time>2026-04-22T09:57:13-07:00</time>
</trkpt>
<trkpt lat="38.2491" lon="-120.38745">
<ele>1324.3</ele>
<time>2026-04-22T09:57:14-07:00</time>
</trkpt>
<trkpt lat="38.24921" lon="-120.38752">
<ele>1322.1</ele>
<time>2026-04-22T09:57:15-07:00</time>
</trkpt>
<trkpt lat="38.24939" lon="-120.38752">
<ele>1325.1</ele>
<time>2026-04-22T09:57:16-07:00</time>
</trkpt>
<trkpt lat="38.24957" lon="-120.3876">
<ele>1325.9</ele>
<time>2026-04-22T09:57:17-07:00</time>
</trkpt>
<trkpt lat="38.24969" lon="-120.3876">
<ele>1327.4</ele>
<time>2026-04-22T09:57:18-07:00</time>
</trkpt>
<trkpt lat="38.25001" lon="-120.38767">
<ele>1331.8</ele>
<time>2026-04-22T09:57:19-07:00</time>
</trkpt>
<trkpt lat="38.25009" lon="-120.38775">
<ele>1333</ele>
<time>2026-04-22T09:57:20-07:00</time>
</trkpt>
<trkpt lat="38.25014" lon="-120.38775">
<ele>1334.6</ele>
<time>2026-04-22T09:57:21-07:00</time>
</trkpt>
<trkpt lat="38.25018" lon="-120.38773">
<ele>1334.6</ele>
<time>2026-04-22T09:57:22-07:00</time>
</trkpt>
<trkpt lat="38.25024" lon="-120.38765">
<ele>1334</ele>
<time>2026-04-22T09:57:23-07:00</time>
</trkpt>
<trkpt lat="38.25036" lon="-120.38763">
<ele>1333.8</ele>
<time>2026-04-22T09:57:24-07:00</time>
</trkpt>
<trkpt lat="38.25045" lon="-120.38757">
<ele>1332.6</ele>
<time>2026-04-22T09:57:25-07:00</time>
</trkpt>
<trkpt lat="38.25056" lon="-120.38754">
<ele>1332.1</ele>
<time>2026-04-22T09:57:26-07:00</time>
</trkpt>
<trkpt lat="38.25079" lon="-120.38766">
<ele>1332.3</ele>
<time>2026-04-22T09:57:27-07:00</time>
</trkpt>
<trkpt lat="38.25085" lon="-120.38774">
<ele>1332.2</ele>
<time>2026-04-22T09:57:28-07:00</time>
</trkpt>
<trkpt lat="38.25088" lon="-120.38772">
<ele>1332.2</ele>
<time>2026-04-22T09:57:29-07:00</time>
</trkpt>
<trkpt lat="38.25092" lon="-120.3875">
<ele>1327.8</ele>
<time>2026-04-22T09:57:30-07:00</time>
</trkpt>
<trkpt lat="38.25092" lon="-120.38735">
<ele>1325.5</ele>
<time>2026-04-22T09:57:31-07:00</time>
</trkpt>
<trkpt lat="38.25099" lon="-120.38731">
<ele>1321.1</ele>
<time>2026-04-22T09:57:32-07:00</time>
</trkpt>
<trkpt lat="38.25113" lon="-120.38733">
<ele>1320.1</ele>
<time>2026-04-22T09:57:33-07:00</time>
</trkpt>
<trkpt lat="38.25107" lon="-120.38721">
<ele>1316.3</ele>
<time>2026-04-22T09:57:34-07:00</time>
</trkpt>
<trkpt lat="38.25114" lon="-120.38716">
<ele>1314.2</ele>
<time>2026-04-22T09:57:35-07:00</time>
</trkpt>
<trkpt lat="38.25125" lon="-120.38715">
<ele>1312.5</ele>
<time>2026-04-22T09:57:36-07:00</time>
</trkpt>
<trkpt lat="38.25126" lon="-120.38711">
<ele>1309.3</ele>
<time>2026-04-22T09:57:37-07:00</time>
</trkpt>
<trkpt lat="38.2511" lon="-120.38689">
<ele>1307</ele>
<time>2026-04-22T09:57:38-07:00</time>
</trkpt>
<trkpt lat="38.25126" lon="-120.38685">
<ele>1299.9</ele>
<time>2026-04-22T09:57:39-07:00</time>
</trkpt>
<trkpt lat="38.25141" lon="-120.38688">
<ele>1299.5</ele>
<time>2026-04-22T09:57:40-07:00</time>
</trkpt>
<trkpt lat="38.25146" lon="-120.38683">
<ele>1296.3</ele>
<time>2026-04-22T09:57:41-07:00</time>
</trkpt>
<trkpt lat="38.25133" lon="-120.38658">
<ele>1291.2</ele>
<time>2026-04-22T09:57:42-07:00</time>
</trkpt>
<trkpt lat="38.25119" lon="-120.38645">
<ele>1288.9</ele>
<time>2026-04-22T09:57:43-07:00</time>
</trkpt>
<trkpt lat="38.25114" lon="-120.38635">
<ele>1285.7</ele>
<time>2026-04-22T09:57:44-07:00</time>
</trkpt>
<trkpt lat="38.25118" lon="-120.38628">
<ele>1282.4</ele>
<time>2026-04-22T09:57:45-07:00</time>
</trkpt>
<trkpt lat="38.25124" lon="-120.38628">
<ele>1280.6</ele>
<time>2026-04-22T09:57:46-07:00</time>
</trkpt>
<trkpt lat="38.2513" lon="-120.38622">
<ele>1278.7</ele>
<time>2026-04-22T09:57:47-07:00</time>
</trkpt>
<trkpt lat="38.25148" lon="-120.38626">
<ele>1276.5</ele>
<time>2026-04-22T09:57:48-07:00</time>
</trkpt>
<trkpt lat="38.25157" lon="-120.38626">
<ele>1274</ele>
<time>2026-04-22T09:57:49-07:00</time>
</trkpt>
<trkpt lat="38.25152" lon="-120.38616">
<ele>1270.7</ele>
<time>2026-04-22T09:57:50-07:00</time>
</trkpt>
<trkpt lat="38.25133" lon="-120.38598">
<ele>1269.7</ele>
<time>2026-04-22T09:57:51-07:00</time>
</trkpt>
<trkpt lat="38.25132" lon="-120.38588">
<ele>1266.6</ele>
<time>2026-04-22T09:57:52-07:00</time>
</trkpt>
<trkpt lat="38.25141" lon="-120.38584">
<ele>1264.2</ele>
<time>2026-04-22T09:57:53-07:00</time>
</trkpt>
<trkpt lat="38.25146" lon="-120.38584">
<ele>1264.2</ele>
<time>2026-04-22T09:57:54-07:00</time>
</trkpt>
<trkpt lat="38.25157" lon="-120.38594">
<ele>1264.5</ele>
<time>2026-04-22T09:57:55-07:00</time>
</trkpt>
<trkpt lat="38.25182" lon="-120.38603">
<ele>1261</ele>
<time>2026-04-22T09:57:56-07:00</time>
</trkpt>
<trkpt lat="38.25224" lon="-120.38603">
<ele>1252.4</ele>
<time>2026-04-22T09:57:57-07:00</time>
</trkpt>
<trkpt lat="38.2524" lon="-120.38609">
<ele>1250.2</ele>
<time>2026-04-22T09:57:58-07:00</time>
</trkpt>
<trkpt lat="38.25233" lon="-120.38584">
<ele>1244.1</ele>
<time>2026-04-22T09:57:59-07:00</time>
</trkpt>
<trkpt lat="38.25212" lon="-120.38567">
<ele>1241.7</ele>
<time>2026-04-22T09:58:00-07:00</time>
</trkpt>
<trkpt lat="38.25193" lon="-120.3854">
<ele>1234.6</ele>
<time>2026-04-22T09:58:01-07:00</time>
</trkpt>
<trkpt lat="38.25179" lon="-120.38512">
<ele>1229.1</ele>
<time>2026-04-22T09:58:02-07:00</time>
</trkpt>
<trkpt lat="38.25156" lon="-120.38487">
<ele>1228.3</ele>
<time>2026-04-22T09:58:03-07:00</time>
</trkpt>
<trkpt lat="38.25143" lon="-120.38466">
<ele>1222.9</ele>
<time>2026-04-22T09:58:04-07:00</time>
</trkpt>
<trkpt lat="38.25126" lon="-120.38462">
<ele>1219.4</ele>
<time>2026-04-22T09:58:05-07:00</time>
</trkpt>
<trkpt lat="38.25117" lon="-120.38453">
<ele>1215.2</ele>
<time>2026-04-22T09:58:06-07:00</time>
</trkpt>
<trkpt lat="38.25121" lon="-120.38447">
<ele>1216</ele>
<time>2026-04-22T09:58:07-07:00</time>
</trkpt>
<trkpt lat="38.2513" lon="-120.38446">
<ele>1216.1</ele>
<time>2026-04-22T09:58:08-07:00</time>
</trkpt>
<trkpt lat="38.2515" lon="-120.38434">
<ele>1208.2</ele>
<time>2026-04-22T09:58:09-07:00</time>
</trkpt>
<trkpt lat="38.25162" lon="-120.38435">
<ele>1207.1</ele>
<time>2026-04-22T09:58:10-07:00</time>
</trkpt>
<trkpt lat="38.25177" lon="-120.38444">
<ele>1206.4</ele>
<time>2026-04-22T09:58:11-07:00</time>
</trkpt>
<trkpt lat="38.25174" lon="-120.38431">
<ele>1205.5</ele>
<time>2026-04-22T09:58:12-07:00</time>
</trkpt>
<trkpt lat="38.25175" lon="-120.38422">
<ele>1203</ele>
<time>2026-04-22T09:58:13-07:00</time>
</trkpt>
<trkpt lat="38.25186" lon="-120.3843">
<ele>1201.7</ele>
<time>2026-04-22T09:58:14-07:00</time>
</trkpt>
<trkpt lat="38.25193" lon="-120.38431">
<ele>1201.7</ele>
<time>2026-04-22T09:58:15-07:00</time>
</trkpt>
<trkpt lat="38.252" lon="-120.38424">
<ele>1197.6</ele>
<time>2026-04-22T09:58:16-07:00</time>
</trkpt>
<trkpt lat="38.25195" lon="-120.38409">
<ele>1196</ele>
<time>2026-04-22T09:58:17-07:00</time>
</trkpt>
<trkpt lat="38.25195" lon="-120.38392">
<ele>1192.9</ele>
<time>2026-04-22T09:58:18-07:00</time>
</trkpt>
<trkpt lat="38.25212" lon="-120.38382">
<ele>1190.2</ele>
<time>2026-04-22T09:58:19-07:00</time>
</trkpt>
<trkpt lat="38.25216" lon="-120.38371">
<ele>1187.9</ele>
<time>2026-04-22T09:58:20-07:00</time>
</trkpt>
<trkpt lat="38.25207" lon="-120.38364">
<ele>1187.3</ele>
<time>2026-04-22T09:58:21-07:00</time>
</trkpt>
<trkpt lat="38.25165" lon="-120.38364">
<ele>1186.4</ele>
<time>2026-04-22T09:58:22-07:00</time>
</trkpt>
<trkpt lat="38.2513" lon="-120.38359">
<ele>1182.5</ele>
<time>2026-04-22T09:58:23-07:00</time>
</trkpt>
<trkpt lat="38.25104" lon="-120.38347">
<ele>1178.2</ele>
<time>2026-04-22T09:58:24-07:00</time>
</trkpt>
<trkpt lat="38.25083" lon="-120.38348">
<ele>1179.3</ele>
<time>2026-04-22T09:58:25-07:00</time>
</trkpt>
<trkpt lat="38.25076" lon="-120.38342">
<ele>1178.9</ele>
<time>2026-04-22T09:58:26-07:00</time>
</trkpt>
<trkpt lat="38.25078" lon="-120.38333">
<ele>1178.7</ele>
<time>2026-04-22T09:58:27-07:00</time>
</trkpt>
<trkpt lat="38.25089" lon="-120.38325">
<ele>1176.9</ele>
<time>2026-04-22T09:58:28-07:00</time>
</trkpt>
<trkpt lat="38.25116" lon="-120.38315">
<ele>1173.3</ele>
<time>2026-04-22T09:58:29-07:00</time>
</trkpt>
<trkpt lat="38.25132" lon="-120.38303">
<ele>1178.7</ele>
<time>2026-04-22T09:58:30-07:00</time>
</trkpt>
<trkpt lat="38.25215" lon="-120.38259">
<ele>1173.9</ele>
<time>2026-04-22T09:58:31-07:00</time>
</trkpt>
<trkpt lat="38.25351" lon="-120.38219">
<ele>1192.5</ele>
<time>2026-04-22T09:58:32-07:00</time>
</trkpt>
<trkpt lat="38.25367" lon="-120.38216">
<ele>1190.6</ele>
<time>2026-04-22T09:58:33-07:00</time>
</trkpt>
<trkpt lat="38.25378" lon="-120.38209">
<ele>1191.5</ele>
<time>2026-04-22T09:58:34-07:00</time>
</trkpt>
<trkpt lat="38.25381" lon="-120.38196">
<ele>1189.2</ele>
<time>2026-04-22T09:58:35-07:00</time>
</trkpt>
<trkpt lat="38.25374" lon="-120.38171">
<ele>1195.5</ele>
<time>2026-04-22T09:58:36-07:00</time>
</trkpt>
<trkpt lat="38.25374" lon="-120.3815">
<ele>1195.8</ele>
<time>2026-04-22T09:58:37-07:00</time>
</trkpt>
<trkpt lat="38.25368" lon="-120.38131">
<ele>1203.1</ele>
<time>2026-04-22T09:58:38-07:00</time>
</trkpt>
<trkpt lat="38.2536" lon="-120.38071">
<ele>1214</ele>
<time>2026-04-22T09:58:39-07:00</time>
</trkpt>
<trkpt lat="38.25347" lon="-120.38035">
<ele>1216.7</ele>
<time>2026-04-22T09:58:40-07:00</time>
</trkpt>
<trkpt lat="38.25358" lon="-120.38023">
<ele>1220.3</ele>
<time>2026-04-22T09:58:41-07:00</time>
</trkpt>
<trkpt lat="38.25394" lon="-120.37998">
<ele>1226.3</ele>
<time>2026-04-22T09:58:42-07:00</time>
</trkpt>
<trkpt lat="38.25406" lon="-120.37996">
<ele>1225.8</ele>
<time>2026-04-22T09:58:43-07:00</time>
</trkpt>
<trkpt lat="38.25448" lon="-120.37997">
<ele>1228.7</ele>
<time>2026-04-22T09:58:44-07:00</time>
</trkpt>
<trkpt lat="38.25456" lon="-120.37992">
<ele>1227.7</ele>
<time>2026-04-22T09:58:45-07:00</time>
</trkpt>
<trkpt lat="38.25477" lon="-120.37972">
<ele>1231.3</ele>
<time>2026-04-22T09:58:46-07:00</time>
</trkpt>
<trkpt lat="38.25499" lon="-120.37943">
<ele>1231.3</ele>
<time>2026-04-22T09:58:47-07:00</time>
</trkpt>
<trkpt lat="38.25504" lon="-120.37927">
<ele>1228</ele>
<time>2026-04-22T09:58:48-07:00</time>
</trkpt>
<trkpt lat="38.25504" lon="-120.37898">
<ele>1226.7</ele>
<time>2026-04-22T09:58:49-07:00</time>
</trkpt>
<trkpt lat="38.25502" lon="-120.37878">
<ele>1223</ele>
<time>2026-04-22T09:58:50-07:00</time>
</trkpt>
<trkpt lat="38.25492" lon="-120.37861">
<ele>1221.2</ele>
<time>2026-04-22T09:58:51-07:00</time>
</trkpt>
<trkpt lat="38.25459" lon="-120.37828">
<ele>1225.7</ele>
<time>2026-04-22T09:58:52-07:00</time>
</trkpt>
<trkpt lat="38.25451" lon="-120.37813">
<ele>1224.2</ele>
<time>2026-04-22T09:58:53-07:00</time>
</trkpt>
<trkpt lat="38.25444" lon="-120.37794">
<ele>1224.9</ele>
<time>2026-04-22T09:58:54-07:00</time>
</trkpt>
<trkpt lat="38.25448" lon="-120.37792">
<ele>1226.7</ele>
<time>2026-04-22T09:58:55-07:00</time>
</trkpt>
<trkpt lat="38.25456" lon="-120.37793">
<ele>1227.3</ele>
<time>2026-04-22T09:58:56-07:00</time>
</trkpt>
<trkpt lat="38.25466" lon="-120.37796">
<ele>1227.7</ele>
<time>2026-04-22T09:58:57-07:00</time>
</trkpt>
<trkpt lat="38.25472" lon="-120.378">
<ele>1225.9</ele>
<time>2026-04-22T09:58:58-07:00</time>
</trkpt>
<trkpt lat="38.25482" lon="-120.37798">
<ele>1226.1</ele>
<time>2026-04-22T09:58:59-07:00</time>
</trkpt>
<trkpt lat="38.25495" lon="-120.37791">
<ele>1228.2</ele>
<time>2026-04-22T09:59:00-07:00</time>
</trkpt>
<trkpt lat="38.25507" lon="-120.37782">
<ele>1229.3</ele>
<time>2026-04-22T09:59:01-07:00</time>
</trkpt>
<trkpt lat="38.25513" lon="-120.3777">
<ele>1228.8</ele>
<time>2026-04-22T09:59:02-07:00</time>
</trkpt>
<trkpt lat="38.2551" lon="-120.37736">
<ele>1231.3</ele>
<time>2026-04-22T09:59:03-07:00</time>
</trkpt>
<trkpt lat="38.25495" lon="-120.37691">
<ele>1237.4</ele>
<time>2026-04-22T09:59:04-07:00</time>
</trkpt>
<trkpt lat="38.2551" lon="-120.37659">
<ele>1236</ele>
<time>2026-04-22T09:59:05-07:00</time>
</trkpt>
<trkpt lat="38.25509" lon="-120.37617">
<ele>1237.7</ele>
<time>2026-04-22T09:59:06-07:00</time>
</trkpt>
<trkpt lat="38.25535" lon="-120.37581">
<ele>1234.4</ele>
<time>2026-04-22T09:59:07-07:00</time>
</trkpt>
<trkpt lat="38.25548" lon="-120.37572">
<ele>1232.9</ele>
<time>2026-04-22T09:59:08-07:00</time>
</trkpt>
<trkpt lat="38.25555" lon="-120.37564">
<ele>1232.3</ele>
<time>2026-04-22T09:59:09-07:00</time>
</trkpt>
<trkpt lat="38.2556" lon="-120.37549">
<ele>1230.7</ele>
<time>2026-04-22T09:59:10-07:00</time>
</trkpt>
<trkpt lat="38.25636" lon="-120.37463">
<ele>1222.4</ele>
<time>2026-04-22T09:59:11-07:00</time>
</trkpt>
<trkpt lat="38.25638" lon="-120.37445">
<ele>1220.7</ele>
<time>2026-04-22T09:59:12-07:00</time>
</trkpt>
<trkpt lat="38.25633" lon="-120.37421">
<ele>1217.1</ele>
<time>2026-04-22T09:59:13-07:00</time>
</trkpt>
<trkpt lat="38.25624" lon="-120.3741">
<ele>1215.6</ele>
<time>2026-04-22T09:59:14-07:00</time>
</trkpt>
<trkpt lat="38.25606" lon="-120.37398">
<ele>1212.6</ele>
<time>2026-04-22T09:59:15-07:00</time>
</trkpt>
<trkpt lat="38.25589" lon="-120.37391">
<ele>1211.1</ele>
<time>2026-04-22T09:59:16-07:00</time>
</trkpt>
<trkpt lat="38.25562" lon="-120.37391">
<ele>1206.5</ele>
<time>2026-04-22T09:59:17-07:00</time>
</trkpt>
<trkpt lat="38.25556" lon="-120.37383">
<ele>1204.2</ele>
<time>2026-04-22T09:59:18-07:00</time>
</trkpt>
<trkpt lat="38.25565" lon="-120.37327">
<ele>1201.1</ele>
<time>2026-04-22T09:59:19-07:00</time>
</trkpt>
<trkpt lat="38.25569" lon="-120.37314">
<ele>1201.1</ele>
<time>2026-04-22T09:59:20-07:00</time>
</trkpt>
<trkpt lat="38.2558" lon="-120.37311">
<ele>1202.2</ele>
<time>2026-04-22T09:59:21-07:00</time>
</trkpt>
<trkpt lat="38.25592" lon="-120.37311">
<ele>1201.9</ele>
<time>2026-04-22T09:59:22-07:00</time>
</trkpt>
<trkpt lat="38.2566" lon="-120.37301">
<ele>1198.9</ele>
<time>2026-04-22T09:59:23-07:00</time>
</trkpt>
<trkpt lat="38.25665" lon="-120.37294">
<ele>1200.4</ele>
<time>2026-04-22T09:59:24-07:00</time>
</trkpt>
<trkpt lat="38.25669" lon="-120.37283">
<ele>1199.8</ele>
<time>2026-04-22T09:59:25-07:00</time>
</trkpt>
<trkpt lat="38.25665" lon="-120.37276">
<ele>1201.4</ele>
<time>2026-04-22T09:59:26-07:00</time>
</trkpt>
<trkpt lat="38.25645" lon="-120.37256">
<ele>1204.2</ele>
<time>2026-04-22T09:59:27-07:00</time>
</trkpt>
<trkpt lat="38.2558" lon="-120.37211">
<ele>1212</ele>
<time>2026-04-22T09:59:28-07:00</time>
</trkpt>
<trkpt lat="38.25565" lon="-120.3719">
<ele>1211.8</ele>
<time>2026-04-22T09:59:29-07:00</time>
</trkpt>
<trkpt lat="38.25527" lon="-120.3713">
<ele>1215.7</ele>
<time>2026-04-22T09:59:30-07:00</time>
</trkpt>
<trkpt lat="38.25515" lon="-120.37108">
<ele>1210.9</ele>
<time>2026-04-22T09:59:31-07:00</time>
</trkpt>
<trkpt lat="38.25501" lon="-120.3709">
<ele>1207.9</ele>
<time>2026-04-22T09:59:32-07:00</time>
</trkpt>
<trkpt lat="38.25488" lon="-120.37081">
<ele>1206</ele>
<time>2026-04-22T09:59:33-07:00</time>
</trkpt>
<trkpt lat="38.25474" lon="-120.37074">
<ele>1204.1</ele>
<time>2026-04-22T09:59:34-07:00</time>
</trkpt>
<trkpt lat="38.25457" lon="-120.37041">
<ele>1203.6</ele>
<time>2026-04-22T09:59:35-07:00</time>
</trkpt>
<trkpt lat="38.25461" lon="-120.3702">
<ele>1202.2</ele>
<time>2026-04-22T09:59:36-07:00</time>
</trkpt>
<trkpt lat="38.25468" lon="-120.3701">
<ele>1199.7</ele>
<time>2026-04-22T09:59:37-07:00</time>
</trkpt>
<trkpt lat="38.25475" lon="-120.37005">
<ele>1198.3</ele>
<time>2026-04-22T09:59:38-07:00</time>
</trkpt>
<trkpt lat="38.25489" lon="-120.37005">
<ele>1197.6</ele>
<time>2026-04-22T09:59:39-07:00</time>
</trkpt>
<trkpt lat="38.25504" lon="-120.37011">
<ele>1195</ele>
<time>2026-04-22T09:59:40-07:00</time>
</trkpt>
<trkpt lat="38.25517" lon="-120.37012">
<ele>1194.5</ele>
<time>2026-04-22T09:59:41-07:00</time>
</trkpt>
<trkpt lat="38.25531" lon="-120.37011">
<ele>1192.3</ele>
<time>2026-04-22T09:59:42-07:00</time>
</trkpt>
<trkpt lat="38.25565" lon="-120.36996">
<ele>1188.9</ele>
<time>2026-04-22T09:59:43-07:00</time>
</trkpt>
<trkpt lat="38.25573" lon="-120.36995">
<ele>1188.9</ele>
<time>2026-04-22T09:59:44-07:00</time>
</trkpt>
<trkpt lat="38.25586" lon="-120.36998">
<ele>1189.1</ele>
<time>2026-04-22T09:59:45-07:00</time>
</trkpt>
<trkpt lat="38.25612" lon="-120.37019">
<ele>1188.6</ele>
<time>2026-04-22T09:59:46-07:00</time>
</trkpt>
<trkpt lat="38.25645" lon="-120.37029">
<ele>1189.4</ele>
<time>2026-04-22T09:59:47-07:00</time>
</trkpt>
<trkpt lat="38.25669" lon="-120.37042">
<ele>1188</ele>
<time>2026-04-22T09:59:48-07:00</time>
</trkpt>
<trkpt lat="38.25695" lon="-120.3706">
<ele>1184.3</ele>
<time>2026-04-22T09:59:49-07:00</time>
</trkpt>
<trkpt lat="38.25715" lon="-120.37064">
<ele>1183.3</ele>
<time>2026-04-22T09:59:50-07:00</time>
</trkpt>
<trkpt lat="38.25735" lon="-120.3706">
<ele>1181.7</ele>
<time>2026-04-22T09:59:51-07:00</time>
</trkpt>
<trkpt lat="38.25757" lon="-120.37048">
<ele>1180.1</ele>
<time>2026-04-22T09:59:52-07:00</time>
</trkpt>
<trkpt lat="38.25786" lon="-120.37025">
<ele>1176.7</ele>
<time>2026-04-22T09:59:53-07:00</time>
</trkpt>
<trkpt lat="38.258" lon="-120.36997">
<ele>1173.5</ele>
<time>2026-04-22T09:59:54-07:00</time>
</trkpt>
<trkpt lat="38.25806" lon="-120.36972">
<ele>1168.9</ele>
<time>2026-04-22T09:59:55-07:00</time>
</trkpt>
<trkpt lat="38.25804" lon="-120.36899">
<ele>1168.9</ele>
<time>2026-04-22T09:59:56-07:00</time>
</trkpt>
<trkpt lat="38.25806" lon="-120.36887">
<ele>1162.9</ele>
<time>2026-04-22T09:59:57-07:00</time>
</trkpt>
<trkpt lat="38.2581" lon="-120.36877">
<ele>1164.7</ele>
<time>2026-04-22T09:59:58-07:00</time>
</trkpt>
<trkpt lat="38.25817" lon="-120.36876">
<ele>1167.2</ele>
<time>2026-04-22T09:59:59-07:00</time>
</trkpt>
<trkpt lat="38.25838" lon="-120.36881">
<ele>1166.9</ele>
<time>2026-04-22T10:00:00-07:00</time>
</trkpt>
<trkpt lat="38.25845" lon="-120.36876">
<ele>1169</ele>
<time>2026-04-22T10:00:01-07:00</time>
</trkpt>
<trkpt lat="38.25848" lon="-120.36866">
<ele>1171</ele>
<time>2026-04-22T10:00:02-07:00</time>
</trkpt>
<trkpt lat="38.2584" lon="-120.36863">
<ele>1172.3</ele>
<time>2026-04-22T10:00:03-07:00</time>
</trkpt>
<trkpt lat="38.25833" lon="-120.36854">
<ele>1174.6</ele>
<time>2026-04-22T10:00:04-07:00</time>
</trkpt>
<trkpt lat="38.25831" lon="-120.36844">
<ele>1176.9</ele>
<time>2026-04-22T10:00:05-07:00</time>
</trkpt>
<trkpt lat="38.2584" lon="-120.3684">
<ele>1179.1</ele>
<time>2026-04-22T10:00:06-07:00</time>
</trkpt>
<trkpt lat="38.25845" lon="-120.36828">
<ele>1178.3</ele>
<time>2026-04-22T10:00:07-07:00</time>
</trkpt>
<trkpt lat="38.25842" lon="-120.36819">
<ele>1183.2</ele>
<time>2026-04-22T10:00:08-07:00</time>
</trkpt>
<trkpt lat="38.25836" lon="-120.36815">
<ele>1183.2</ele>
<time>2026-04-22T10:00:09-07:00</time>
</trkpt>
<trkpt lat="38.25831" lon="-120.36808">
<ele>1185.4</ele>
<time>2026-04-22T10:00:10-07:00</time>
</trkpt>
<trkpt lat="38.2583" lon="-120.36796">
<ele>1189</ele>
<time>2026-04-22T10:00:11-07:00</time>
</trkpt>
<trkpt lat="38.25835" lon="-120.36784">
<ele>1189.6</ele>
<time>2026-04-22T10:00:12-07:00</time>
</trkpt>
<trkpt lat="38.25835" lon="-120.36776">
<ele>1190.6</ele>
<time>2026-04-22T10:00:13-07:00</time>
</trkpt>
<trkpt lat="38.2582" lon="-120.36744">
<ele>1196.3</ele>
<time>2026-04-22T10:00:14-07:00</time>
</trkpt>
<trkpt lat="38.25819" lon="-120.36705">
<ele>1200.7</ele>
<time>2026-04-22T10:00:15-07:00</time>
</trkpt>
<trkpt lat="38.25817" lon="-120.36692">
<ele>1202.6</ele>
<time>2026-04-22T10:00:16-07:00</time>
</trkpt>
<trkpt lat="38.25811" lon="-120.36677">
<ele>1202.9</ele>
<time>2026-04-22T10:00:17-07:00</time>
</trkpt>
<trkpt lat="38.25803" lon="-120.36664">
<ele>1202.5</ele>
<time>2026-04-22T10:00:18-07:00</time>
</trkpt>
<trkpt lat="38.25795" lon="-120.36639">
<ele>1201.3</ele>
<time>2026-04-22T10:00:19-07:00</time>
</trkpt>
<trkpt lat="38.25792" lon="-120.36612">
<ele>1200.9</ele>
<time>2026-04-22T10:00:20-07:00</time>
</trkpt>
<trkpt lat="38.25794" lon="-120.36593">
<ele>1199.9</ele>
<time>2026-04-22T10:00:21-07:00</time>
</trkpt>
<trkpt lat="38.25789" lon="-120.36567">
<ele>1198.3</ele>
<time>2026-04-22T10:00:22-07:00</time>
</trkpt>
<trkpt lat="38.25793" lon="-120.3654">
<ele>1195.6</ele>
<time>2026-04-22T10:00:23-07:00</time>
</trkpt>
<trkpt lat="38.25792" lon="-120.36492">
<ele>1193</ele>
<time>2026-04-22T10:00:24-07:00</time>
</trkpt>
<trkpt lat="38.25803" lon="-120.36485">
<ele>1193.4</ele>
<time>2026-04-22T10:00:25-07:00</time>
</trkpt>
<trkpt lat="38.25808" lon="-120.36475">
<ele>1194</ele>
<time>2026-04-22T10:00:26-07:00</time>
</trkpt>
<trkpt lat="38.25821" lon="-120.36458">
<ele>1196.1</ele>
<time>2026-04-22T10:00:27-07:00</time>
</trkpt>
<trkpt lat="38.25842" lon="-120.36445">
<ele>1197.3</ele>
<time>2026-04-22T10:00:28-07:00</time>
</trkpt>
<trkpt lat="38.25859" lon="-120.36433">
<ele>1200.5</ele>
<time>2026-04-22T10:00:29-07:00</time>
</trkpt>
<trkpt lat="38.25871" lon="-120.36417">
<ele>1202.2</ele>
<time>2026-04-22T10:00:30-07:00</time>
</trkpt>
<trkpt lat="38.25864" lon="-120.36393">
<ele>1205.8</ele>
<time>2026-04-22T10:00:31-07:00</time>
</trkpt>
<trkpt lat="38.25855" lon="-120.3638">
<ele>1207.4</ele>
<time>2026-04-22T10:00:32-07:00</time>
</trkpt>
<trkpt lat="38.25837" lon="-120.36375">
<ele>1210.9</ele>
<time>2026-04-22T10:00:33-07:00</time>
</trkpt>
<trkpt lat="38.25815" lon="-120.36355">
<ele>1215.5</ele>
<time>2026-04-22T10:00:34-07:00</time>
</trkpt>
<trkpt lat="38.25813" lon="-120.36345">
<ele>1218.1</ele>
<time>2026-04-22T10:00:35-07:00</time>
</trkpt>
<trkpt lat="38.25815" lon="-120.36331">
<ele>1219.6</ele>
<time>2026-04-22T10:00:36-07:00</time>
</trkpt>
<trkpt lat="38.25829" lon="-120.36312">
<ele>1220.6</ele>
<time>2026-04-22T10:00:37-07:00</time>
</trkpt>
<trkpt lat="38.25857" lon="-120.36262">
<ele>1220.9</ele>
<time>2026-04-22T10:00:38-07:00</time>
</trkpt>
<trkpt lat="38.2586" lon="-120.36214">
<ele>1225</ele>
<time>2026-04-22T10:00:39-07:00</time>
</trkpt>
<trkpt lat="38.25857" lon="-120.36192">
<ele>1225.1</ele>
<time>2026-04-22T10:00:40-07:00</time>
</trkpt>
<trkpt lat="38.25849" lon="-120.36169">
<ele>1227</ele>
<time>2026-04-22T10:00:41-07:00</time>
</trkpt>
<trkpt lat="38.2585" lon="-120.36145">
<ele>1229.2</ele>
<time>2026-04-22T10:00:42-07:00</time>
</trkpt>
<trkpt lat="38.25858" lon="-120.36118">
<ele>1231.5</ele>
<time>2026-04-22T10:00:43-07:00</time>
</trkpt>
<trkpt lat="38.25871" lon="-120.3609">
<ele>1234</ele>
<time>2026-04-22T10:00:44-07:00</time>
</trkpt>
<trkpt lat="38.25889" lon="-120.36071">
<ele>1233.8</ele>
<time>2026-04-22T10:00:45-07:00</time>
</trkpt>
<trkpt lat="38.25902" lon="-120.36053">
<ele>1233.5</ele>
<time>2026-04-22T10:00:46-07:00</time>
</trkpt>
<trkpt lat="38.25912" lon="-120.36027">
<ele>1232.2</ele>
<time>2026-04-22T10:00:47-07:00</time>
</trkpt>
<trkpt lat="38.2592" lon="-120.35987">
<ele>1226.3</ele>
<time>2026-04-22T10:00:48-07:00</time>
</trkpt>
<trkpt lat="38.25912" lon="-120.3595">
<ele>1223.7</ele>
<time>2026-04-22T10:00:49-07:00</time>
</trkpt>
<trkpt lat="38.25913" lon="-120.3594">
<ele>1222.6</ele>
<time>2026-04-22T10:00:50-07:00</time>
</trkpt>
<trkpt lat="38.2592" lon="-120.3593">
<ele>1218.2</ele>
<time>2026-04-22T10:00:51-07:00</time>
</trkpt>
<trkpt lat="38.25924" lon="-120.35919">
<ele>1216.9</ele>
<time>2026-04-22T10:00:52-07:00</time>
</trkpt>
<trkpt lat="38.25918" lon="-120.35885">
<ele>1209.2</ele>
<time>2026-04-22T10:00:53-07:00</time>
</trkpt>
<trkpt lat="38.25924" lon="-120.35864">
<ele>1212.5</ele>
<time>2026-04-22T10:00:54-07:00</time>
</trkpt>
<trkpt lat="38.25936" lon="-120.35852">
<ele>1209.3</ele>
<time>2026-04-22T10:00:55-07:00</time>
</trkpt>
<trkpt lat="38.2597" lon="-120.35805">
<ele>1210.3</ele>
<time>2026-04-22T10:00:56-07:00</time>
</trkpt>
<trkpt lat="38.25981" lon="-120.35797">
<ele>1209.5</ele>
<time>2026-04-22T10:00:57-07:00</time>
</trkpt>
<trkpt lat="38.25983" lon="-120.35782">
<ele>1208.9</ele>
<time>2026-04-22T10:00:58-07:00</time>
</trkpt>
<trkpt lat="38.25982" lon="-120.3577">
<ele>1208.2</ele>
<time>2026-04-22T10:00:59-07:00</time>
</trkpt>
<trkpt lat="38.25986" lon="-120.35756">
<ele>1205.8</ele>
<time>2026-04-22T10:01:00-07:00</time>
</trkpt>
<trkpt lat="38.25987" lon="-120.35737">
<ele>1202.4</ele>
<time>2026-04-22T10:01:01-07:00</time>
</trkpt>
<trkpt lat="38.25992" lon="-120.35722">
<ele>1197.3</ele>
<time>2026-04-22T10:01:02-07:00</time>
</trkpt>
<trkpt lat="38.25992" lon="-120.35706">
<ele>1196</ele>
<time>2026-04-22T10:01:03-07:00</time>
</trkpt>
<trkpt lat="38.26001" lon="-120.357">
<ele>1192.6</ele>
<time>2026-04-22T10:01:04-07:00</time>
</trkpt>
<trkpt lat="38.26007" lon="-120.35707">
<ele>1193.8</ele>
<time>2026-04-22T10:01:05-07:00</time>
</trkpt>
<trkpt lat="38.26014" lon="-120.35706">
<ele>1191.7</ele>
<time>2026-04-22T10:01:06-07:00</time>
</trkpt>
<trkpt lat="38.2603" lon="-120.35686">
<ele>1187.9</ele>
<time>2026-04-22T10:01:07-07:00</time>
</trkpt>
<trkpt lat="38.26048" lon="-120.35671">
<ele>1186.5</ele>
<time>2026-04-22T10:01:08-07:00</time>
</trkpt>
<trkpt lat="38.26075" lon="-120.35666">
<ele>1183.6</ele>
<time>2026-04-22T10:01:09-07:00</time>
</trkpt>
<trkpt lat="38.2608" lon="-120.35662">
<ele>1183.6</ele>
<time>2026-04-22T10:01:10-07:00</time>
</trkpt>
<trkpt lat="38.26086" lon="-120.35647">
<ele>1183.7</ele>
<time>2026-04-22T10:01:11-07:00</time>
</trkpt>
<trkpt lat="38.26094" lon="-120.35636">
<ele>1183.5</ele>
<time>2026-04-22T10:01:12-07:00</time>
</trkpt>
<trkpt lat="38.26115" lon="-120.35622">
<ele>1183.5</ele>
<time>2026-04-22T10:01:13-07:00</time>
</trkpt>
<trkpt lat="38.26122" lon="-120.35604">
<ele>1186.1</ele>
<time>2026-04-22T10:01:14-07:00</time>
</trkpt>
<trkpt lat="38.26124" lon="-120.35591">
<ele>1188.7</ele>
<time>2026-04-22T10:01:15-07:00</time>
</trkpt>
<trkpt lat="38.2614" lon="-120.35566">
<ele>1189.5</ele>
<time>2026-04-22T10:01:16-07:00</time>
</trkpt>
<trkpt lat="38.26142" lon="-120.35553">
<ele>1189.7</ele>
<time>2026-04-22T10:01:17-07:00</time>
</trkpt>
<trkpt lat="38.26141" lon="-120.35522">
<ele>1188.7</ele>
<time>2026-04-22T10:01:18-07:00</time>
</trkpt>
<trkpt lat="38.26131" lon="-120.35477">
<ele>1192</ele>
<time>2026-04-22T10:01:19-07:00</time>
</trkpt>
<trkpt lat="38.26131" lon="-120.35466">
<ele>1192.4</ele>
<time>2026-04-22T10:01:20-07:00</time>
</trkpt>
<trkpt lat="38.26138" lon="-120.35449">
<ele>1193</ele>
<time>2026-04-22T10:01:21-07:00</time>
</trkpt>
<trkpt lat="38.26159" lon="-120.3543">
<ele>1189.4</ele>
<time>2026-04-22T10:01:22-07:00</time>
</trkpt>
<trkpt lat="38.26174" lon="-120.35419">
<ele>1187.5</ele>
<time>2026-04-22T10:01:23-07:00</time>
</trkpt>
<trkpt lat="38.26197" lon="-120.35415">
<ele>1186.4</ele>
<time>2026-04-22T10:01:24-07:00</time>
</trkpt>
<trkpt lat="38.26211" lon="-120.35424">
<ele>1184.8</ele>
<time>2026-04-22T10:01:25-07:00</time>
</trkpt>
<trkpt lat="38.26224" lon="-120.35422">
<ele>1184.9</ele>
<time>2026-04-22T10:01:26-07:00</time>
</trkpt>
<trkpt lat="38.26259" lon="-120.35397">
<ele>1185.6</ele>
<time>2026-04-22T10:01:27-07:00</time>
</trkpt>
<trkpt lat="38.26271" lon="-120.35384">
<ele>1183.6</ele>
<time>2026-04-22T10:01:28-07:00</time>
</trkpt>
<trkpt lat="38.26294" lon="-120.35334">
<ele>1182.3</ele>
<time>2026-04-22T10:01:29-07:00</time>
</trkpt>
<trkpt lat="38.26319" lon="-120.35309">
<ele>1177.6</ele>
<time>2026-04-22T10:01:30-07:00</time>
</trkpt>
<trkpt lat="38.26336" lon="-120.35308">
<ele>1177.7</ele>
<time>2026-04-22T10:01:31-07:00</time>
</trkpt>
<trkpt lat="38.26365" lon="-120.35322">
<ele>1180.6</ele>
<time>2026-04-22T10:01:32-07:00</time>
</trkpt>
<trkpt lat="38.264" lon="-120.35334">
<ele>1181.4</ele>
<time>2026-04-22T10:01:33-07:00</time>
</trkpt>
<trkpt lat="38.26477" lon="-120.35347">
<ele>1181.6</ele>
<time>2026-04-22T10:01:34-07:00</time>
</trkpt>
<trkpt lat="38.26491" lon="-120.35344">
<ele>1182.2</ele>
<time>2026-04-22T10:01:35-07:00</time>
</trkpt>
<trkpt lat="38.26509" lon="-120.3533">
<ele>1185.4</ele>
<time>2026-04-22T10:01:36-07:00</time>
</trkpt>
<trkpt lat="38.26572" lon="-120.35224">
<ele>1186.4</ele>
<time>2026-04-22T10:01:37-07:00</time>
</trkpt>
<trkpt lat="38.26577" lon="-120.35184">
<ele>1188.3</ele>
<time>2026-04-22T10:01:38-07:00</time>
</trkpt>
<trkpt lat="38.26609" lon="-120.35066">
<ele>1188.9</ele>
<time>2026-04-22T10:01:39-07:00</time>
</trkpt>
<trkpt lat="38.26607" lon="-120.35046">
<ele>1189</ele>
<time>2026-04-22T10:01:40-07:00</time>
</trkpt>
<trkpt lat="38.266" lon="-120.35022">
<ele>1189.9</ele>
<time>2026-04-22T10:01:41-07:00</time>
</trkpt>
<trkpt lat="38.26589" lon="-120.34996">
<ele>1190.8</ele>
<time>2026-04-22T10:01:42-07:00</time>
</trkpt>
<trkpt lat="38.26578" lon="-120.34947">
<ele>1190.8</ele>
<time>2026-04-22T10:01:43-07:00</time>
</trkpt>
<trkpt lat="38.26579" lon="-120.3492">
<ele>1192.1</ele>
<time>2026-04-22T10:01:44-07:00</time>
</trkpt>
<trkpt lat="38.26583" lon="-120.34904">
<ele>1193.7</ele>
<time>2026-04-22T10:01:45-07:00</time>
</trkpt>
<trkpt lat="38.26609" lon="-120.34856">
<ele>1193.1</ele>
<time>2026-04-22T10:01:46-07:00</time>
</trkpt>
<trkpt lat="38.26616" lon="-120.34851">
<ele>1194.7</ele>
<time>2026-04-22T10:01:47-07:00</time>
</trkpt>
<trkpt lat="38.26644" lon="-120.34846">
<ele>1194.3</ele>
<time>2026-04-22T10:01:48-07:00</time>
</trkpt>
<trkpt lat="38.26653" lon="-120.3484">
<ele>1195.3</ele>
<time>2026-04-22T10:01:49-07:00</time>
</trkpt>
<trkpt lat="38.26659" lon="-120.34832">
<ele>1194.1</ele>
<time>2026-04-22T10:01:50-07:00</time>
</trkpt>
<trkpt lat="38.2672" lon="-120.34812">
<ele>1198.3</ele>
<time>2026-04-22T10:01:51-07:00</time>
</trkpt>
<trkpt lat="38.26739" lon="-120.34801">
<ele>1198</ele>
<time>2026-04-22T10:01:52-07:00</time>
</trkpt>
<trkpt lat="38.268" lon="-120.34754">
<ele>1203.5</ele>
<time>2026-04-22T10:01:53-07:00</time>
</trkpt>
<trkpt lat="38.26813" lon="-120.34741">
<ele>1204</ele>
<time>2026-04-22T10:01:54-07:00</time>
</trkpt>
<trkpt lat="38.26818" lon="-120.34727">
<ele>1204.7</ele>
<time>2026-04-22T10:01:55-07:00</time>
</trkpt>
<trkpt lat="38.26818" lon="-120.34712">
<ele>1204.9</ele>
<time>2026-04-22T10:01:56-07:00</time>
</trkpt>
<trkpt lat="38.26804" lon="-120.34695">
<ele>1208.7</ele>
<time>2026-04-22T10:01:57-07:00</time>
</trkpt>
<trkpt lat="38.2675" lon="-120.34663">
<ele>1209.1</ele>
<time>2026-04-22T10:01:58-07:00</time>
</trkpt>
<trkpt lat="38.26727" lon="-120.34656">
<ele>1209.7</ele>
<time>2026-04-22T10:01:59-07:00</time>
</trkpt>
<trkpt lat="38.26656" lon="-120.34601">
<ele>1210</ele>
<time>2026-04-22T10:02:00-07:00</time>
</trkpt>
<trkpt lat="38.26648" lon="-120.34586">
<ele>1210.6</ele>
<time>2026-04-22T10:02:01-07:00</time>
</trkpt>
<trkpt lat="38.26638" lon="-120.34541">
<ele>1209.3</ele>
<time>2026-04-22T10:02:02-07:00</time>
</trkpt>
<trkpt lat="38.2663" lon="-120.34519">
<ele>1206.2</ele>
<time>2026-04-22T10:02:03-07:00</time>
</trkpt>
<trkpt lat="38.26614" lon="-120.34495">
<ele>1205</ele>
<time>2026-04-22T10:02:04-07:00</time>
</trkpt>
<trkpt lat="38.26607" lon="-120.34488">
<ele>1203.4</ele>
<time>2026-04-22T10:02:05-07:00</time>
</trkpt>
<trkpt lat="38.26594" lon="-120.34485">
<ele>1203.1</ele>
<time>2026-04-22T10:02:06-07:00</time>
</trkpt>
<trkpt lat="38.26578" lon="-120.34487">
<ele>1201.1</ele>
<time>2026-04-22T10:02:07-07:00</time>
</trkpt>
<trkpt lat="38.26547" lon="-120.34499">
<ele>1199.1</ele>
<time>2026-04-22T10:02:08-07:00</time>
</trkpt>
<trkpt lat="38.26516" lon="-120.34502">
<ele>1195.9</ele>
<time>2026-04-22T10:02:09-07:00</time>
</trkpt>
<trkpt lat="38.26509" lon="-120.34498">
<ele>1194.3</ele>
<time>2026-04-22T10:02:10-07:00</time>
</trkpt>
<trkpt lat="38.26505" lon="-120.34488">
<ele>1193.6</ele>
<time>2026-04-22T10:02:11-07:00</time>
</trkpt>
<trkpt lat="38.26521" lon="-120.3445">
<ele>1192.6</ele>
<time>2026-04-22T10:02:12-07:00</time>
</trkpt>
<trkpt lat="38.26507" lon="-120.34448">
<ele>1191.7</ele>
<time>2026-04-22T10:02:13-07:00</time>
</trkpt>
<trkpt lat="38.26497" lon="-120.34456">
<ele>1191.3</ele>
<time>2026-04-22T10:02:14-07:00</time>
</trkpt>
<trkpt lat="38.26483" lon="-120.34461">
<ele>1190.5</ele>
<time>2026-04-22T10:02:15-07:00</time>
</trkpt>
<trkpt lat="38.26451" lon="-120.34457">
<ele>1187.4</ele>
<time>2026-04-22T10:02:16-07:00</time>
</trkpt>
<trkpt lat="38.26457" lon="-120.34457">
<ele>1187.6</ele>
<time>2026-04-22T10:02:17-07:00</time>
</trkpt>
<trkpt lat="38.26462" lon="-120.34454">
<ele>1187.6</ele>
<time>2026-04-22T10:02:18-07:00</time>
</trkpt>
<trkpt lat="38.26475" lon="-120.3444">
<ele>1188.4</ele>
<time>2026-04-22T10:02:19-07:00</time>
</trkpt>
<trkpt lat="38.26516" lon="-120.34381">
<ele>1186</ele>
<time>2026-04-22T10:02:20-07:00</time>
</trkpt>
<trkpt lat="38.26518" lon="-120.34373">
<ele>1185.5</ele>
<time>2026-04-22T10:02:21-07:00</time>
</trkpt>
<trkpt lat="38.26522" lon="-120.34357">
<ele>1184</ele>
<time>2026-04-22T10:02:22-07:00</time>
</trkpt>
<trkpt lat="38.26522" lon="-120.34332">
<ele>1182.9</ele>
<time>2026-04-22T10:02:23-07:00</time>
</trkpt>
<trkpt lat="38.2652" lon="-120.34315">
<ele>1182.7</ele>
<time>2026-04-22T10:02:24-07:00</time>
</trkpt>
<trkpt lat="38.26522" lon="-120.34287">
<ele>1182.8</ele>
<time>2026-04-22T10:02:25-07:00</time>
</trkpt>
<trkpt lat="38.26524" lon="-120.34278">
<ele>1182.8</ele>
<time>2026-04-22T10:02:26-07:00</time>
</trkpt>
<trkpt lat="38.26517" lon="-120.3428">
<ele>1183.2</ele>
<time>2026-04-22T10:02:27-07:00</time>
</trkpt>
<trkpt lat="38.2653" lon="-120.34272">
<ele>1181.9</ele>
<time>2026-04-22T10:02:28-07:00</time>
</trkpt>
<trkpt lat="38.26569" lon="-120.34262">
<ele>1181</ele>
<time>2026-04-22T10:02:29-07:00</time>
</trkpt>
<trkpt lat="38.26608" lon="-120.34261">
<ele>1182</ele>
<time>2026-04-22T10:02:30-07:00</time>
</trkpt>
<trkpt lat="38.26617" lon="-120.34272">
<ele>1182.1</ele>
<time>2026-04-22T10:02:31-07:00</time>
</trkpt>
<trkpt lat="38.2663" lon="-120.34282">
<ele>1183.3</ele>
<time>2026-04-22T10:02:32-07:00</time>
</trkpt>
<trkpt lat="38.26636" lon="-120.34286">
<ele>1183.3</ele>
<time>2026-04-22T10:02:33-07:00</time>
</trkpt>
<trkpt lat="38.26643" lon="-120.34286">
<ele>1183.1</ele>
<time>2026-04-22T10:02:34-07:00</time>
</trkpt>
</trkseg>
</trk>
</gpx>
